FCN587 MNMG-KBFI
Flight info
| Callsign | FCN587 |
|---|---|
| Flight time | 6h 26m |
| Altitude | 36000 |
| Route | LIBIS DCT NALDA DCT JOTAS DCT VODIV DCT BOSAS/N0490F380 DCT POGOE DCT JCT DCT BGS DCT FTI DCT JNC J15 TCH/N0485F400 J12 TWF J15 BOI J163 BKE DCT YKM CHINS5 |
| Aircraft | A35K/H-SDE2E3GHIJ3J4J5LM1ORWXY/LB1D1 |
Departure
| Time | 2026-05-04 21:28 |
|---|---|
| Airport | Augusto C. Sandino (Managua) International Airport (MNMG) |
Arrival
| Time | 2026-05-05 03:54 |
|---|---|
| Airport | King County International Airport - Boeing Field (KBFI) |
| Time | Latitude | Longitude | Altitude | Speed | Heading |
|---|---|---|---|---|---|
| 2026-05-04 21:14 | 12.14371 | -86.16964 | 206 ft | 0 kts | 6° |
| 2026-05-04 21:18 | 12.14351 | -86.16968 | 229 ft | 4 kts | 25° |
| 2026-05-04 21:19 | 12.14330 | -86.16984 | 215 ft | 4 kts | 58° |
| 2026-05-04 21:19 | 12.14320 | -86.17009 | 219 ft | 4 kts | 81° |
| 2026-05-04 21:19 | 12.14318 | -86.17036 | 216 ft | 4 kts | 93° |
| 2026-05-04 21:19 | 12.14321 | -86.17063 | 216 ft | 4 kts | 97° |
| 2026-05-04 21:20 | 12.14322 | -86.17074 | 211 ft | 5 kts | 96° |
| 2026-05-04 21:21 | 12.14322 | -86.17073 | 211 ft | 0 kts | 96° |
| 2026-05-04 21:21 | 12.14322 | -86.17070 | 212 ft | 1 kts | 96° |
| 2026-05-04 21:22 | 12.14319 | -86.17046 | 209 ft | 5 kts | 96° |
| 2026-05-04 21:22 | 12.14315 | -86.17008 | 218 ft | 6 kts | 96° |
| 2026-05-04 21:22 | 12.14310 | -86.16958 | 219 ft | 8 kts | 96° |
| 2026-05-04 21:22 | 12.14303 | -86.16896 | 215 ft | 10 kts | 96° |
| 2026-05-04 21:23 | 12.14295 | -86.16824 | 216 ft | 11 kts | 96° |
| 2026-05-04 21:23 | 12.14286 | -86.16740 | 206 ft | 12 kts | 96° |
| 2026-05-04 21:23 | 12.14269 | -86.16650 | 214 ft | 13 kts | 113° |
| 2026-05-04 21:23 | 12.14195 | -86.16605 | 218 ft | 13 kts | 158° |
| 2026-05-04 21:24 | 12.14132 | -86.16534 | 218 ft | 14 kts | 115° |
| 2026-05-04 21:24 | 12.14116 | -86.16435 | 217 ft | 14 kts | 97° |
| 2026-05-04 21:24 | 12.14104 | -86.16334 | 218 ft | 14 kts | 97° |
| 2026-05-04 21:24 | 12.14092 | -86.16233 | 216 ft | 15 kts | 97° |
| 2026-05-04 21:25 | 12.14079 | -86.16124 | 208 ft | 16 kts | 97° |
| 2026-05-04 21:25 | 12.14067 | -86.16005 | 207 ft | 18 kts | 96° |
| 2026-05-04 21:25 | 12.14053 | -86.15878 | 210 ft | 18 kts | 96° |
| 2026-05-04 21:25 | 12.14019 | -86.15765 | 217 ft | 13 kts | 107° |
| 2026-05-04 21:26 | 12.14036 | -86.15733 | 219 ft | 1 kts | 351° |
| 2026-05-04 21:26 | 12.14041 | -86.15741 | 219 ft | 3 kts | 301° |
| 2026-05-04 21:26 | 12.14043 | -86.15775 | 219 ft | 6 kts | 275° |
| 2026-05-04 21:26 | 12.14045 | -86.15796 | 219 ft | 0 kts | 276° |
| 2026-05-04 21:27 | 12.14046 | -86.15806 | 219 ft | 11 kts | 277° |
| 2026-05-04 21:27 | 12.14089 | -86.16193 | 215 ft | 100 kts | 276° |
| 2026-05-04 21:27 | 12.14199 | -86.17177 | 209 ft | 176 kts | 276° |
| 2026-05-04 21:27 | 12.14362 | -86.18543 | 715 ft | 198 kts | 276° |
| 2026-05-04 21:28 | 12.14654 | -86.19916 | 1561 ft | 208 kts | 295° |
| 2026-05-04 21:28 | 12.15636 | -86.21109 | 2149 ft | 233 kts | 329° |
| 2026-05-04 21:28 | 12.17098 | -86.21914 | 3097 ft | 244 kts | 341° |
| 2026-05-04 21:28 | 12.18680 | -86.22622 | 3612 ft | 258 kts | 339° |
| 2026-05-04 21:29 | 12.20329 | -86.23465 | 4106 ft | 269 kts | 334° |
| 2026-05-04 21:29 | 12.21891 | -86.24491 | 4787 ft | 274 kts | 329° |
| 2026-05-04 21:29 | 12.23447 | -86.25645 | 5463 ft | 278 kts | 327° |
| 2026-05-04 21:29 | 12.25020 | -86.26863 | 6169 ft | 282 kts | 327° |
| 2026-05-04 21:30 | 12.26573 | -86.28062 | 6809 ft | 285 kts | 327° |
| 2026-05-04 21:30 | 12.28176 | -86.29278 | 7496 ft | 288 kts | 327° |
| 2026-05-04 21:30 | 12.29825 | -86.30505 | 8230 ft | 290 kts | 328° |
| 2026-05-04 21:30 | 12.31448 | -86.31699 | 8951 ft | 293 kts | 327° |
| 2026-05-04 21:31 | 12.34824 | -86.34154 | 10245 ft | 305 kts | 328° |
| 2026-05-04 21:31 | 12.36606 | -86.35440 | 10566 ft | 323 kts | 327° |
| 2026-05-04 21:31 | 12.38486 | -86.36796 | 10860 ft | 339 kts | 327° |
| 2026-05-04 21:32 | 12.40459 | -86.38224 | 11151 ft | 355 kts | 327° |
| 2026-05-04 21:32 | 12.42510 | -86.39714 | 11456 ft | 369 kts | 327° |
| 2026-05-04 21:32 | 12.44639 | -86.41263 | 11732 ft | 382 kts | 326° |
| 2026-05-04 21:32 | 12.46837 | -86.42861 | 12044 ft | 392 kts | 326° |
| 2026-05-04 21:33 | 12.49078 | -86.44495 | 12490 ft | 398 kts | 326° |
| 2026-05-04 21:33 | 12.51349 | -86.46155 | 12947 ft | 403 kts | 327° |
| 2026-05-04 21:33 | 12.53644 | -86.47830 | 13421 ft | 408 kts | 327° |
| 2026-05-04 21:33 | 12.55964 | -86.49521 | 13896 ft | 410 kts | 327° |
| 2026-05-04 21:34 | 12.58294 | -86.51217 | 14390 ft | 411 kts | 326° |
| 2026-05-04 21:34 | 12.60632 | -86.52922 | 14857 ft | 413 kts | 326° |
| 2026-05-04 21:34 | 12.62974 | -86.54631 | 15304 ft | 415 kts | 327° |
| 2026-05-04 21:34 | 12.65336 | -86.56352 | 15757 ft | 417 kts | 327° |
| 2026-05-04 21:35 | 12.67701 | -86.58076 | 16194 ft | 419 kts | 327° |
| 2026-05-04 21:35 | 12.70085 | -86.59813 | 16631 ft | 421 kts | 327° |
| 2026-05-04 21:35 | 12.72473 | -86.61553 | 17060 ft | 423 kts | 327° |
| 2026-05-04 21:35 | 12.74870 | -86.63301 | 17495 ft | 424 kts | 327° |
| 2026-05-04 21:36 | 12.77284 | -86.65061 | 17868 ft | 427 kts | 327° |
| 2026-05-04 21:36 | 12.79711 | -86.66832 | 18233 ft | 429 kts | 327° |
| 2026-05-04 21:36 | 12.82111 | -86.68584 | 18568 ft | 431 kts | 327° |
| 2026-05-04 21:36 | 12.84557 | -86.70371 | 18892 ft | 433 kts | 326° |
| 2026-05-04 21:37 | 12.87006 | -86.72160 | 19217 ft | 435 kts | 326° |
| 2026-05-04 21:37 | 12.89480 | -86.73969 | 19549 ft | 436 kts | 326° |
| 2026-05-04 21:37 | 12.91957 | -86.75779 | 19887 ft | 438 kts | 326° |
| 2026-05-04 21:37 | 12.94446 | -86.77599 | 20213 ft | 440 kts | 326° |
| 2026-05-04 21:38 | 12.96945 | -86.79426 | 20533 ft | 442 kts | 326° |
| 2026-05-04 21:38 | 12.99451 | -86.81258 | 20854 ft | 444 kts | 326° |
| 2026-05-04 21:38 | 13.01969 | -86.83100 | 21184 ft | 446 kts | 326° |
| 2026-05-04 21:38 | 13.04502 | -86.84953 | 21533 ft | 447 kts | 326° |
| 2026-05-04 21:39 | 13.07040 | -86.86810 | 21871 ft | 449 kts | 325° |
| 2026-05-04 21:39 | 13.09593 | -86.88679 | 22211 ft | 451 kts | 325° |
| 2026-05-04 21:39 | 13.12153 | -86.90553 | 22559 ft | 453 kts | 326° |
| 2026-05-04 21:39 | 13.14719 | -86.92434 | 23035 ft | 452 kts | 326° |
| 2026-05-04 21:40 | 13.17273 | -86.94306 | 23456 ft | 453 kts | 325° |
| 2026-05-04 21:40 | 13.19854 | -86.96196 | 23604 ft | 460 kts | 325° |
| 2026-05-04 21:40 | 13.22479 | -86.98119 | 23786 ft | 464 kts | 325° |
| 2026-05-04 21:40 | 13.25109 | -87.00048 | 24142 ft | 465 kts | 325° |
| 2026-05-04 21:41 | 13.27743 | -87.01979 | 24454 ft | 467 kts | 325° |
| 2026-05-04 21:41 | 13.30393 | -87.03923 | 24763 ft | 469 kts | 325° |
| 2026-05-04 21:41 | 13.33056 | -87.05877 | 25082 ft | 471 kts | 325° |
| 2026-05-04 21:41 | 13.35725 | -87.07836 | 25472 ft | 472 kts | 325° |
| 2026-05-04 21:42 | 13.38375 | -87.09780 | 25809 ft | 475 kts | 325° |
| 2026-05-04 21:42 | 13.41108 | -87.11787 | 26138 ft | 478 kts | 325° |
| 2026-05-04 21:42 | 13.43781 | -87.13750 | 26515 ft | 480 kts | 325° |
| 2026-05-04 21:42 | 13.46503 | -87.15750 | 26915 ft | 482 kts | 325° |
| 2026-05-04 21:43 | 13.49234 | -87.17758 | 27337 ft | 484 kts | 324° |
| 2026-05-04 21:43 | 13.52011 | -87.19799 | 27730 ft | 487 kts | 324° |
| 2026-05-04 21:43 | 13.54738 | -87.21804 | 28142 ft | 488 kts | 324° |
| 2026-05-04 21:43 | 13.57502 | -87.23838 | 28563 ft | 489 kts | 324° |
| 2026-05-04 21:44 | 13.60284 | -87.25885 | 28847 ft | 493 kts | 324° |
| 2026-05-04 21:44 | 13.63089 | -87.27938 | 29154 ft | 497 kts | 325° |
| 2026-05-04 21:44 | 13.65965 | -87.29920 | 29542 ft | 498 kts | 327° |
| 2026-05-04 21:44 | 13.68876 | -87.31847 | 29945 ft | 499 kts | 327° |
| 2026-05-04 21:45 | 13.71813 | -87.33770 | 30266 ft | 500 kts | 327° |
| 2026-05-04 21:45 | 13.74724 | -87.35680 | 30834 ft | 494 kts | 327° |
| 2026-05-04 21:45 | 13.77610 | -87.37584 | 31329 ft | 492 kts | 326° |
| 2026-05-04 21:45 | 13.80495 | -87.39500 | 31634 ft | 493 kts | 326° |
| 2026-05-04 21:46 | 13.83380 | -87.41425 | 31820 ft | 496 kts | 326° |
| 2026-05-04 21:46 | 13.86264 | -87.43359 | 32304 ft | 492 kts | 326° |
| 2026-05-04 21:46 | 13.89132 | -87.45285 | 32652 ft | 492 kts | 326° |
| 2026-05-04 21:46 | 13.92001 | -87.47215 | 32882 ft | 495 kts | 326° |
| 2026-05-04 21:47 | 13.94884 | -87.49153 | 33191 ft | 495 kts | 326° |
| 2026-05-04 21:47 | 13.97762 | -87.51088 | 33617 ft | 492 kts | 326° |
| 2026-05-04 21:47 | 14.00632 | -87.53016 | 33828 ft | 494 kts | 326° |
| 2026-05-04 21:47 | 14.03521 | -87.54957 | 34038 ft | 496 kts | 326° |
| 2026-05-04 21:48 | 14.06367 | -87.56871 | 34336 ft | 494 kts | 325° |
| 2026-05-04 21:48 | 14.09226 | -87.58794 | 34687 ft | 491 kts | 325° |
| 2026-05-04 21:48 | 14.12086 | -87.60719 | 34933 ft | 491 kts | 325° |
| 2026-05-04 21:48 | 14.14943 | -87.62642 | 35251 ft | 489 kts | 325° |
| 2026-05-04 21:49 | 14.17786 | -87.64554 | 35596 ft | 486 kts | 325° |
| 2026-05-04 21:49 | 14.20625 | -87.66466 | 35834 ft | 487 kts | 325° |
| 2026-05-04 21:49 | 14.23463 | -87.68377 | 35972 ft | 489 kts | 325° |
| 2026-05-04 21:50 | 14.29188 | -87.72236 | 35995 ft | 493 kts | 325° |
| 2026-05-04 21:50 | 14.34927 | -87.76104 | 35994 ft | 492 kts | 325° |
| 2026-05-04 21:51 | 14.40650 | -87.79966 | 35997 ft | 492 kts | 325° |
| 2026-05-04 21:51 | 14.46374 | -87.83832 | 36001 ft | 492 kts | 325° |
| 2026-05-04 21:52 | 14.52102 | -87.87701 | 36003 ft | 492 kts | 325° |
| 2026-05-04 21:52 | 14.57829 | -87.91573 | 36006 ft | 492 kts | 325° |
| 2026-05-04 21:53 | 14.63553 | -87.95444 | 36008 ft | 492 kts | 325° |
| 2026-05-04 21:53 | 14.69278 | -87.99319 | 35986 ft | 492 kts | 325° |
| 2026-05-04 21:54 | 14.75004 | -88.03197 | 36005 ft | 492 kts | 325° |
| 2026-05-04 21:54 | 14.80735 | -88.07080 | 36006 ft | 492 kts | 325° |
| 2026-05-04 21:55 | 14.86450 | -88.10955 | 36008 ft | 491 kts | 325° |
| 2026-05-04 21:55 | 14.92160 | -88.14835 | 35998 ft | 491 kts | 325° |
| 2026-05-04 21:56 | 14.97822 | -88.18680 | 36000 ft | 490 kts | 325° |
| 2026-05-04 21:56 | 15.03515 | -88.22545 | 36001 ft | 490 kts | 325° |
| 2026-05-04 21:57 | 15.09212 | -88.26417 | 35984 ft | 490 kts | 324° |
| 2026-05-04 21:57 | 15.14907 | -88.30291 | 35987 ft | 489 kts | 325° |
| 2026-05-04 21:58 | 15.19634 | -88.33508 | 36019 ft | 489 kts | 324° |
| 2026-05-04 21:58 | 15.25327 | -88.37387 | 35992 ft | 489 kts | 324° |
| 2026-05-04 21:59 | 15.31013 | -88.41263 | 35990 ft | 488 kts | 325° |
| 2026-05-04 21:59 | 15.36677 | -88.45126 | 35955 ft | 487 kts | 325° |
| 2026-05-04 22:00 | 15.42331 | -88.48985 | 35963 ft | 487 kts | 325° |
| 2026-05-04 22:00 | 15.47985 | -88.52847 | 35934 ft | 487 kts | 325° |
| 2026-05-04 22:01 | 15.53639 | -88.56710 | 35902 ft | 487 kts | 325° |
| 2026-05-04 22:01 | 15.59258 | -88.60553 | 35869 ft | 487 kts | 325° |
| 2026-05-04 22:02 | 15.64951 | -88.64448 | 35859 ft | 487 kts | 324° |
| 2026-05-04 22:02 | 15.70559 | -88.68288 | 35857 ft | 486 kts | 324° |
| 2026-05-04 22:03 | 15.76202 | -88.72155 | 35862 ft | 486 kts | 324° |
| 2026-05-04 22:03 | 15.81835 | -88.76018 | 35866 ft | 486 kts | 324° |
| 2026-05-04 22:04 | 15.87472 | -88.79886 | 35881 ft | 485 kts | 324° |
| 2026-05-04 22:04 | 15.93109 | -88.83756 | 35889 ft | 486 kts | 324° |
| 2026-05-04 22:05 | 15.98740 | -88.87626 | 35894 ft | 486 kts | 324° |
| 2026-05-04 22:05 | 16.04380 | -88.91502 | 35898 ft | 485 kts | 324° |
| 2026-05-04 22:06 | 16.10005 | -88.95373 | 35919 ft | 485 kts | 324° |
| 2026-05-04 22:06 | 16.15635 | -88.99249 | 35921 ft | 485 kts | 324° |
| 2026-05-04 22:07 | 16.21265 | -89.03128 | 35925 ft | 485 kts | 324° |
| 2026-05-04 22:07 | 16.26859 | -89.06986 | 35927 ft | 485 kts | 324° |
| 2026-05-04 22:08 | 16.32488 | -89.10870 | 35941 ft | 485 kts | 324° |
| 2026-05-04 22:08 | 16.38107 | -89.14748 | 35956 ft | 484 kts | 324° |
| 2026-05-04 22:09 | 16.43712 | -89.18620 | 35950 ft | 483 kts | 324° |
| 2026-05-04 22:09 | 16.49308 | -89.22490 | 35957 ft | 483 kts | 324° |
| 2026-05-04 22:10 | 16.54910 | -89.26369 | 35953 ft | 483 kts | 324° |
| 2026-05-04 22:10 | 16.60509 | -89.30245 | 35955 ft | 483 kts | 324° |
| 2026-05-04 22:11 | 16.66103 | -89.34121 | 35957 ft | 483 kts | 324° |
| 2026-05-04 22:11 | 16.71701 | -89.38002 | 35960 ft | 483 kts | 323° |
| 2026-05-04 22:12 | 16.77298 | -89.41886 | 35949 ft | 483 kts | 323° |
| 2026-05-04 22:12 | 16.82891 | -89.45769 | 35949 ft | 483 kts | 323° |
| 2026-05-04 22:13 | 16.88482 | -89.49654 | 35950 ft | 483 kts | 323° |
| 2026-05-04 22:13 | 16.94078 | -89.53546 | 35944 ft | 483 kts | 323° |
| 2026-05-04 22:14 | 16.99635 | -89.57413 | 35938 ft | 483 kts | 323° |
| 2026-05-04 22:14 | 17.05219 | -89.61302 | 35938 ft | 483 kts | 323° |
| 2026-05-04 22:15 | 17.10801 | -89.65192 | 35931 ft | 481 kts | 323° |
| 2026-05-04 22:15 | 17.16383 | -89.69084 | 35935 ft | 481 kts | 323° |
| 2026-05-04 22:16 | 17.21948 | -89.72968 | 35932 ft | 481 kts | 323° |
| 2026-05-04 22:16 | 17.27519 | -89.76860 | 35933 ft | 481 kts | 323° |
| 2026-05-04 22:17 | 17.33090 | -89.80753 | 35933 ft | 481 kts | 323° |
| 2026-05-04 22:17 | 17.38628 | -89.84627 | 35933 ft | 481 kts | 323° |
| 2026-05-04 22:18 | 17.44189 | -89.88519 | 35932 ft | 479 kts | 323° |
| 2026-05-04 22:18 | 17.49719 | -89.92392 | 35930 ft | 478 kts | 323° |
| 2026-05-04 22:19 | 17.55247 | -89.96269 | 35927 ft | 478 kts | 323° |
| 2026-05-04 22:19 | 17.60773 | -90.00146 | 35925 ft | 478 kts | 323° |
| 2026-05-04 22:20 | 17.66287 | -90.04018 | 35925 ft | 477 kts | 323° |
| 2026-05-04 22:20 | 17.71808 | -90.07897 | 35924 ft | 477 kts | 323° |
| 2026-05-04 22:21 | 17.77321 | -90.11772 | 35923 ft | 476 kts | 324° |
| 2026-05-04 22:21 | 17.82842 | -90.15618 | 35919 ft | 476 kts | 324° |
| 2026-05-04 22:22 | 17.88357 | -90.19452 | 35911 ft | 476 kts | 324° |
| 2026-05-04 22:22 | 17.93835 | -90.23270 | 35911 ft | 476 kts | 324° |
| 2026-05-04 22:23 | 17.99352 | -90.27123 | 35914 ft | 476 kts | 324° |
| 2026-05-04 22:23 | 18.04869 | -90.30979 | 35909 ft | 476 kts | 324° |
| 2026-05-04 22:24 | 18.10380 | -90.34832 | 35908 ft | 476 kts | 324° |
| 2026-05-04 22:24 | 18.15891 | -90.38690 | 35905 ft | 476 kts | 324° |
| 2026-05-04 22:25 | 18.21405 | -90.42553 | 35903 ft | 476 kts | 324° |
| 2026-05-04 22:25 | 18.26915 | -90.46415 | 35903 ft | 476 kts | 324° |
| 2026-05-04 22:26 | 18.32425 | -90.50281 | 35900 ft | 476 kts | 324° |
| 2026-05-04 22:26 | 18.37941 | -90.54153 | 35901 ft | 476 kts | 324° |
| 2026-05-04 22:27 | 18.43415 | -90.57999 | 35907 ft | 476 kts | 323° |
| 2026-05-04 22:27 | 18.48919 | -90.61869 | 35897 ft | 475 kts | 323° |
| 2026-05-04 22:28 | 18.54408 | -90.65732 | 35897 ft | 474 kts | 323° |
| 2026-05-04 22:28 | 18.59894 | -90.69596 | 35897 ft | 474 kts | 323° |
| 2026-05-04 22:29 | 18.65375 | -90.73460 | 35898 ft | 474 kts | 323° |
| 2026-05-04 22:29 | 18.70863 | -90.77331 | 35894 ft | 474 kts | 323° |
| 2026-05-04 22:30 | 18.76351 | -90.81205 | 35897 ft | 475 kts | 323° |
| 2026-05-04 22:30 | 18.81833 | -90.85078 | 35899 ft | 473 kts | 323° |
| 2026-05-04 22:31 | 18.87299 | -90.88942 | 35898 ft | 472 kts | 323° |
| 2026-05-04 22:31 | 18.92759 | -90.92807 | 35897 ft | 472 kts | 323° |
| 2026-05-04 22:32 | 18.98217 | -90.96673 | 35899 ft | 472 kts | 323° |
| 2026-05-04 22:32 | 19.03677 | -91.00543 | 35900 ft | 472 kts | 323° |
| 2026-05-04 22:33 | 19.09131 | -91.04412 | 35901 ft | 472 kts | 323° |
| 2026-05-04 22:33 | 19.14590 | -91.08288 | 35907 ft | 472 kts | 323° |
| 2026-05-04 22:34 | 19.20035 | -91.12157 | 35904 ft | 471 kts | 323° |
| 2026-05-04 22:34 | 19.25486 | -91.16035 | 35907 ft | 471 kts | 323° |
| 2026-05-04 22:35 | 19.30673 | -91.20171 | 35906 ft | 470 kts | 319° |
| 2026-05-04 22:35 | 19.35741 | -91.24543 | 35908 ft | 470 kts | 319° |
| 2026-05-04 22:36 | 19.40834 | -91.28886 | 35914 ft | 470 kts | 319° |
| 2026-05-04 22:36 | 19.45960 | -91.33186 | 35924 ft | 470 kts | 320° |
| 2026-05-04 22:37 | 19.51100 | -91.37474 | 35912 ft | 470 kts | 320° |
| 2026-05-04 22:37 | 19.56233 | -91.41759 | 35911 ft | 469 kts | 320° |
| 2026-05-04 22:38 | 19.61364 | -91.46049 | 35914 ft | 469 kts | 320° |
| 2026-05-04 22:38 | 19.66458 | -91.50313 | 35913 ft | 469 kts | 320° |
| 2026-05-04 22:39 | 19.71582 | -91.54606 | 35922 ft | 469 kts | 320° |
| 2026-05-04 22:39 | 19.76707 | -91.58904 | 35920 ft | 469 kts | 320° |
| 2026-05-04 22:40 | 19.81832 | -91.63205 | 35922 ft | 469 kts | 320° |
| 2026-05-04 22:40 | 19.86943 | -91.67499 | 35919 ft | 468 kts | 320° |
| 2026-05-04 22:41 | 19.92058 | -91.71799 | 35916 ft | 468 kts | 320° |
| 2026-05-04 22:41 | 19.97170 | -91.76099 | 35922 ft | 468 kts | 320° |
| 2026-05-04 22:42 | 20.02279 | -91.80402 | 35919 ft | 468 kts | 320° |
| 2026-05-04 22:42 | 20.07388 | -91.84708 | 35922 ft | 468 kts | 320° |
| 2026-05-04 22:43 | 20.12495 | -91.89015 | 35922 ft | 468 kts | 320° |
| 2026-05-04 22:43 | 20.17558 | -91.93291 | 35921 ft | 467 kts | 320° |
| 2026-05-04 22:44 | 20.22643 | -91.97587 | 35922 ft | 467 kts | 320° |
| 2026-05-04 22:44 | 20.27736 | -92.01894 | 35922 ft | 467 kts | 320° |
| 2026-05-04 22:45 | 20.32830 | -92.06192 | 35924 ft | 467 kts | 321° |
| 2026-05-04 22:45 | 20.40807 | -92.12201 | 35925 ft | 468 kts | 324° |
| 2026-05-04 22:46 | 20.46162 | -92.16147 | 35934 ft | 468 kts | 323° |
| 2026-05-04 22:46 | 20.51446 | -92.20106 | 35924 ft | 466 kts | 323° |
| 2026-05-04 22:47 | 20.56732 | -92.24102 | 35923 ft | 466 kts | 323° |
| 2026-05-04 22:47 | 20.62021 | -92.28108 | 35926 ft | 466 kts | 323° |
| 2026-05-04 22:48 | 20.66408 | -92.31434 | 35924 ft | 466 kts | 323° |
| 2026-05-04 22:48 | 20.71695 | -92.35441 | 35928 ft | 466 kts | 323° |
| 2026-05-04 22:49 | 20.76979 | -92.39448 | 35927 ft | 466 kts | 323° |
| 2026-05-04 22:49 | 20.82257 | -92.43455 | 35930 ft | 465 kts | 324° |
| 2026-05-04 22:50 | 20.87524 | -92.47457 | 35932 ft | 464 kts | 324° |
| 2026-05-04 22:50 | 20.92783 | -92.51456 | 35929 ft | 464 kts | 323° |
| 2026-05-04 22:51 | 20.98040 | -92.55457 | 35929 ft | 464 kts | 323° |
| 2026-05-04 22:51 | 21.03304 | -92.59468 | 35932 ft | 464 kts | 323° |
| 2026-05-04 22:52 | 21.08557 | -92.63474 | 35935 ft | 464 kts | 323° |
| 2026-05-04 22:52 | 21.13817 | -92.67489 | 35932 ft | 463 kts | 324° |
| 2026-05-04 22:53 | 21.19057 | -92.71491 | 35933 ft | 462 kts | 324° |
| 2026-05-04 22:53 | 21.24262 | -92.75470 | 35932 ft | 462 kts | 324° |
| 2026-05-04 22:54 | 21.29494 | -92.79473 | 35933 ft | 462 kts | 324° |
| 2026-05-04 22:54 | 21.34732 | -92.83485 | 35938 ft | 462 kts | 324° |
| 2026-05-04 22:55 | 21.39964 | -92.87496 | 35933 ft | 462 kts | 324° |
| 2026-05-04 22:55 | 21.45200 | -92.91514 | 35929 ft | 462 kts | 324° |
| 2026-05-04 22:56 | 21.50434 | -92.95533 | 35932 ft | 462 kts | 324° |
| 2026-05-04 22:56 | 21.55664 | -92.99554 | 35938 ft | 462 kts | 324° |
| 2026-05-04 22:57 | 21.60860 | -93.03551 | 35935 ft | 462 kts | 324° |
| 2026-05-04 22:57 | 21.66087 | -93.07576 | 35932 ft | 463 kts | 324° |
| 2026-05-04 22:58 | 21.71326 | -93.11614 | 35935 ft | 463 kts | 324° |
| 2026-05-04 22:58 | 21.76566 | -93.15657 | 35944 ft | 463 kts | 324° |
| 2026-05-04 22:59 | 21.81780 | -93.19683 | 35930 ft | 458 kts | 324° |
| 2026-05-04 22:59 | 21.86949 | -93.23678 | 35932 ft | 456 kts | 324° |
| 2026-05-04 23:00 | 21.92102 | -93.27661 | 35936 ft | 456 kts | 324° |
| 2026-05-04 23:00 | 21.97251 | -93.31649 | 35938 ft | 456 kts | 324° |
| 2026-05-04 23:01 | 22.02400 | -93.35640 | 35935 ft | 456 kts | 324° |
| 2026-05-04 23:01 | 22.07546 | -93.39634 | 35935 ft | 456 kts | 324° |
| 2026-05-04 23:02 | 22.12690 | -93.43627 | 35934 ft | 454 kts | 323° |
| 2026-05-04 23:02 | 22.17806 | -93.47602 | 35924 ft | 452 kts | 323° |
| 2026-05-04 23:03 | 22.22880 | -93.51549 | 35919 ft | 452 kts | 323° |
| 2026-05-04 23:03 | 22.27980 | -93.55520 | 35936 ft | 452 kts | 323° |
| 2026-05-04 23:04 | 22.33091 | -93.59503 | 35938 ft | 452 kts | 323° |
| 2026-05-04 23:04 | 22.38191 | -93.63482 | 35923 ft | 452 kts | 323° |
| 2026-05-04 23:05 | 22.43290 | -93.67462 | 35936 ft | 452 kts | 323° |
| 2026-05-04 23:05 | 22.48366 | -93.71428 | 35942 ft | 449 kts | 323° |
| 2026-05-04 23:06 | 22.53431 | -93.75390 | 35935 ft | 449 kts | 323° |
| 2026-05-04 23:06 | 22.58496 | -93.79355 | 35940 ft | 449 kts | 323° |
| 2026-05-04 23:07 | 22.63560 | -93.83323 | 35938 ft | 449 kts | 323° |
| 2026-05-04 23:07 | 22.68626 | -93.87297 | 35937 ft | 449 kts | 323° |
| 2026-05-04 23:08 | 22.73655 | -93.91245 | 35951 ft | 449 kts | 323° |
| 2026-05-04 23:08 | 22.78711 | -93.95217 | 35936 ft | 448 kts | 323° |
| 2026-05-04 23:09 | 22.83750 | -93.99181 | 35940 ft | 448 kts | 323° |
| 2026-05-04 23:09 | 22.88791 | -94.03150 | 35939 ft | 448 kts | 323° |
| 2026-05-04 23:10 | 22.93826 | -94.07117 | 35941 ft | 447 kts | 323° |
| 2026-05-04 23:10 | 22.98867 | -94.11093 | 35938 ft | 447 kts | 323° |
| 2026-05-04 23:11 | 23.03897 | -94.15065 | 35939 ft | 448 kts | 323° |
| 2026-05-04 23:11 | 23.08934 | -94.19044 | 35939 ft | 447 kts | 322° |
| 2026-05-04 23:12 | 23.13962 | -94.23021 | 35939 ft | 447 kts | 322° |
| 2026-05-04 23:12 | 23.18989 | -94.27002 | 35939 ft | 448 kts | 322° |
| 2026-05-04 23:13 | 23.24020 | -94.30989 | 35938 ft | 448 kts | 322° |
| 2026-05-04 23:13 | 23.29052 | -94.34981 | 35939 ft | 448 kts | 322° |
| 2026-05-04 23:14 | 23.34085 | -94.38977 | 35939 ft | 448 kts | 322° |
| 2026-05-04 23:14 | 23.39113 | -94.42972 | 35942 ft | 447 kts | 322° |
| 2026-05-04 23:15 | 23.44133 | -94.46966 | 35937 ft | 447 kts | 322° |
| 2026-05-04 23:15 | 23.49117 | -94.50935 | 35935 ft | 447 kts | 322° |
| 2026-05-04 23:16 | 23.54133 | -94.54934 | 35938 ft | 447 kts | 322° |
| 2026-05-04 23:16 | 23.59146 | -94.58933 | 35936 ft | 447 kts | 322° |
| 2026-05-04 23:17 | 23.64167 | -94.62943 | 35938 ft | 448 kts | 322° |
| 2026-05-04 23:17 | 23.69196 | -94.66963 | 35951 ft | 448 kts | 321° |
| 2026-05-04 23:18 | 23.74214 | -94.70978 | 35936 ft | 447 kts | 321° |
| 2026-05-04 23:18 | 23.79221 | -94.74989 | 35938 ft | 446 kts | 321° |
| 2026-05-04 23:19 | 23.84229 | -94.79004 | 35938 ft | 446 kts | 321° |
| 2026-05-04 23:19 | 23.89235 | -94.83021 | 35940 ft | 447 kts | 321° |
| 2026-05-04 23:20 | 23.94246 | -94.87047 | 35942 ft | 448 kts | 321° |
| 2026-05-04 23:20 | 23.99318 | -94.91128 | 35954 ft | 458 kts | 321° |
| 2026-05-04 23:21 | 24.04451 | -94.95259 | 35942 ft | 462 kts | 321° |
| 2026-05-04 23:21 | 24.09634 | -94.99434 | 35938 ft | 463 kts | 321° |
| 2026-05-04 23:22 | 24.14821 | -95.03617 | 35931 ft | 463 kts | 321° |
| 2026-05-04 23:22 | 24.20013 | -95.07808 | 35941 ft | 463 kts | 321° |
| 2026-05-04 23:23 | 24.25193 | -95.11995 | 35938 ft | 463 kts | 321° |
| 2026-05-04 23:23 | 24.30374 | -95.16187 | 35952 ft | 463 kts | 321° |
| 2026-05-04 23:24 | 24.35643 | -95.20280 | 35951 ft | 467 kts | 325° |
| 2026-05-04 23:24 | 24.41178 | -95.24008 | 36064 ft | 467 kts | 326° |
| 2026-05-04 23:25 | 24.46748 | -95.27678 | 36207 ft | 467 kts | 326° |
| 2026-05-04 23:25 | 24.52317 | -95.31342 | 36340 ft | 466 kts | 326° |
| 2026-05-04 23:26 | 24.57874 | -95.35010 | 36444 ft | 466 kts | 326° |
| 2026-05-04 23:26 | 24.63429 | -95.38686 | 36538 ft | 466 kts | 326° |
| 2026-05-04 23:27 | 24.68974 | -95.42360 | 36661 ft | 465 kts | 326° |
| 2026-05-04 23:27 | 24.74512 | -95.46033 | 36768 ft | 464 kts | 326° |
| 2026-05-04 23:28 | 24.80011 | -95.49684 | 36863 ft | 464 kts | 326° |
| 2026-05-04 23:28 | 24.85537 | -95.53356 | 36960 ft | 463 kts | 326° |
| 2026-05-04 23:29 | 24.91053 | -95.57026 | 37054 ft | 463 kts | 326° |
| 2026-05-04 23:29 | 24.96565 | -95.60697 | 37118 ft | 463 kts | 326° |
| 2026-05-04 23:30 | 25.02079 | -95.64373 | 37202 ft | 462 kts | 326° |
| 2026-05-04 23:30 | 25.07585 | -95.68048 | 37278 ft | 462 kts | 326° |
| 2026-05-04 23:31 | 25.13077 | -95.71717 | 37332 ft | 462 kts | 326° |
| 2026-05-04 23:31 | 25.18579 | -95.75398 | 37395 ft | 462 kts | 326° |
| 2026-05-04 23:32 | 25.24075 | -95.79077 | 37451 ft | 463 kts | 326° |
| 2026-05-04 23:32 | 25.29582 | -95.82769 | 37478 ft | 463 kts | 326° |
| 2026-05-04 23:33 | 25.35095 | -95.86468 | 37529 ft | 463 kts | 326° |
| 2026-05-04 23:33 | 25.40603 | -95.90168 | 37577 ft | 463 kts | 326° |
| 2026-05-04 23:34 | 25.46111 | -95.93872 | 37597 ft | 463 kts | 326° |
| 2026-05-04 23:34 | 25.51582 | -95.97555 | 37658 ft | 463 kts | 326° |
| 2026-05-04 23:35 | 25.57114 | -96.01284 | 37588 ft | 467 kts | 326° |
| 2026-05-04 23:35 | 25.62670 | -96.05032 | 37605 ft | 468 kts | 326° |
| 2026-05-04 23:36 | 25.68226 | -96.08784 | 37649 ft | 468 kts | 325° |
| 2026-05-04 23:36 | 25.72887 | -96.11934 | 37695 ft | 467 kts | 325° |
| 2026-05-04 23:37 | 25.78443 | -96.15694 | 37735 ft | 467 kts | 325° |
| 2026-05-04 23:37 | 25.83953 | -96.19427 | 37790 ft | 467 kts | 325° |
| 2026-05-04 23:38 | 25.89506 | -96.23194 | 37813 ft | 468 kts | 325° |
| 2026-05-04 23:38 | 25.95055 | -96.26962 | 37850 ft | 468 kts | 325° |
| 2026-05-04 23:39 | 26.00613 | -96.30741 | 37878 ft | 468 kts | 325° |
| 2026-05-04 23:39 | 26.06161 | -96.34516 | 37900 ft | 468 kts | 325° |
| 2026-05-04 23:40 | 26.11712 | -96.38298 | 37928 ft | 467 kts | 325° |
| 2026-05-04 23:40 | 26.17205 | -96.42039 | 37928 ft | 460 kts | 323° |
| 2026-05-04 23:41 | 26.22651 | -96.45759 | 37922 ft | 458 kts | 323° |
| 2026-05-04 23:41 | 26.28055 | -96.49458 | 37928 ft | 459 kts | 323° |
| 2026-05-04 23:42 | 26.33509 | -96.53192 | 37920 ft | 460 kts | 323° |
| 2026-05-04 23:42 | 26.38967 | -96.56931 | 37921 ft | 460 kts | 323° |
| 2026-05-04 23:43 | 26.44425 | -96.60675 | 37926 ft | 461 kts | 323° |
| 2026-05-04 23:43 | 26.49892 | -96.64428 | 37926 ft | 462 kts | 323° |
| 2026-05-04 23:44 | 26.55359 | -96.68186 | 37922 ft | 462 kts | 323° |
| 2026-05-04 23:44 | 26.60831 | -96.71951 | 37922 ft | 462 kts | 323° |
| 2026-05-04 23:45 | 26.66300 | -96.75720 | 37912 ft | 462 kts | 323° |
| 2026-05-04 23:45 | 26.71769 | -96.79492 | 37932 ft | 462 kts | 323° |
| 2026-05-04 23:46 | 26.77220 | -96.83254 | 37913 ft | 459 kts | 323° |
| 2026-05-04 23:46 | 26.82650 | -96.87009 | 37914 ft | 460 kts | 323° |
| 2026-05-04 23:47 | 26.88111 | -96.90791 | 37911 ft | 462 kts | 323° |
| 2026-05-04 23:47 | 26.93574 | -96.94576 | 37911 ft | 462 kts | 323° |
| 2026-05-04 23:48 | 26.99043 | -96.98370 | 37911 ft | 462 kts | 323° |
| 2026-05-04 23:48 | 27.04458 | -97.02128 | 37910 ft | 458 kts | 323° |
| 2026-05-04 23:49 | 27.09866 | -97.05887 | 37914 ft | 456 kts | 323° |
| 2026-05-04 23:49 | 27.15260 | -97.09644 | 37914 ft | 456 kts | 323° |
| 2026-05-04 23:50 | 27.20650 | -97.13401 | 37922 ft | 456 kts | 323° |
| 2026-05-04 23:50 | 27.26043 | -97.17165 | 37914 ft | 456 kts | 323° |
| 2026-05-04 23:51 | 27.31428 | -97.20924 | 37917 ft | 455 kts | 322° |
| 2026-05-04 23:51 | 27.36780 | -97.24666 | 37916 ft | 452 kts | 322° |
| 2026-05-04 23:52 | 27.42121 | -97.28406 | 37925 ft | 452 kts | 322° |
| 2026-05-04 23:52 | 27.47461 | -97.32151 | 37914 ft | 452 kts | 322° |
| 2026-05-04 23:53 | 27.52793 | -97.35894 | 37923 ft | 452 kts | 322° |
| 2026-05-04 23:53 | 27.58135 | -97.39647 | 37911 ft | 452 kts | 322° |
| 2026-05-04 23:54 | 27.63464 | -97.43396 | 37930 ft | 452 kts | 322° |
| 2026-05-04 23:54 | 27.68698 | -97.47284 | 37924 ft | 450 kts | 320° |
| 2026-05-04 23:55 | 27.73815 | -97.51347 | 37923 ft | 449 kts | 320° |
| 2026-05-04 23:56 | 27.81467 | -97.57389 | 37928 ft | 450 kts | 320° |
| 2026-05-04 23:56 | 27.86621 | -97.61415 | 37935 ft | 451 kts | 320° |
| 2026-05-04 23:57 | 27.91784 | -97.65443 | 37927 ft | 450 kts | 320° |
| 2026-05-04 23:57 | 27.96940 | -97.69472 | 37923 ft | 450 kts | 320° |
| 2026-05-04 23:58 | 28.02089 | -97.73503 | 37915 ft | 450 kts | 320° |
| 2026-05-04 23:58 | 28.07237 | -97.77538 | 37885 ft | 450 kts | 320° |
| 2026-05-04 23:59 | 28.12384 | -97.81577 | 37882 ft | 450 kts | 320° |
| 2026-05-04 23:59 | 28.17526 | -97.85617 | 37895 ft | 449 kts | 320° |
| 2026-05-05 00:00 | 28.22622 | -97.89624 | 37895 ft | 448 kts | 320° |
| 2026-05-05 00:00 | 28.27777 | -97.93682 | 37897 ft | 448 kts | 320° |
| 2026-05-05 00:01 | 28.32863 | -97.97694 | 37888 ft | 448 kts | 319° |
| 2026-05-05 00:01 | 28.37996 | -98.01748 | 37891 ft | 450 kts | 319° |
| 2026-05-05 00:02 | 28.43142 | -98.05815 | 37897 ft | 450 kts | 320° |
| 2026-05-05 00:02 | 28.48261 | -98.09862 | 37867 ft | 447 kts | 320° |
| 2026-05-05 00:03 | 28.53346 | -98.13890 | 37858 ft | 446 kts | 320° |
| 2026-05-05 00:03 | 28.58436 | -98.17928 | 37856 ft | 445 kts | 319° |
| 2026-05-05 00:04 | 28.63521 | -98.21967 | 37857 ft | 445 kts | 320° |
| 2026-05-05 00:04 | 28.68600 | -98.26006 | 37853 ft | 445 kts | 320° |
| 2026-05-05 00:05 | 28.73671 | -98.30042 | 37849 ft | 443 kts | 319° |
| 2026-05-05 00:05 | 28.78712 | -98.34058 | 37858 ft | 441 kts | 319° |
| 2026-05-05 00:06 | 28.83720 | -98.38056 | 37860 ft | 443 kts | 319° |
| 2026-05-05 00:06 | 28.88773 | -98.42095 | 37853 ft | 444 kts | 319° |
| 2026-05-05 00:07 | 28.93830 | -98.46139 | 37908 ft | 444 kts | 319° |
| 2026-05-05 00:07 | 28.98885 | -98.50187 | 37934 ft | 444 kts | 320° |
| 2026-05-05 00:08 | 29.03964 | -98.54258 | 37906 ft | 442 kts | 319° |
| 2026-05-05 00:08 | 29.08959 | -98.58268 | 37897 ft | 442 kts | 319° |
| 2026-05-05 00:09 | 29.13981 | -98.62306 | 37886 ft | 442 kts | 319° |
| 2026-05-05 00:09 | 29.19012 | -98.66354 | 37851 ft | 442 kts | 319° |
| 2026-05-05 00:10 | 29.24035 | -98.70402 | 37878 ft | 442 kts | 319° |
| 2026-05-05 00:10 | 29.29060 | -98.74455 | 37888 ft | 441 kts | 319° |
| 2026-05-05 00:11 | 29.34059 | -98.78493 | 37887 ft | 440 kts | 319° |
| 2026-05-05 00:11 | 29.39059 | -98.82537 | 37888 ft | 439 kts | 319° |
| 2026-05-05 00:12 | 29.44055 | -98.86584 | 37887 ft | 439 kts | 319° |
| 2026-05-05 00:12 | 29.49056 | -98.90638 | 37880 ft | 440 kts | 319° |
| 2026-05-05 00:13 | 29.54046 | -98.94688 | 37866 ft | 439 kts | 319° |
| 2026-05-05 00:13 | 29.59000 | -98.98710 | 37852 ft | 435 kts | 319° |
| 2026-05-05 00:14 | 29.63900 | -99.02698 | 37858 ft | 434 kts | 319° |
| 2026-05-05 00:14 | 29.68826 | -99.06715 | 37869 ft | 434 kts | 319° |
| 2026-05-05 00:15 | 29.73750 | -99.10733 | 37876 ft | 434 kts | 319° |
| 2026-05-05 00:15 | 29.78685 | -99.14764 | 37885 ft | 436 kts | 319° |
| 2026-05-05 00:16 | 29.83619 | -99.18796 | 37894 ft | 433 kts | 319° |
| 2026-05-05 00:16 | 29.88516 | -99.22806 | 37897 ft | 431 kts | 318° |
| 2026-05-05 00:17 | 29.93404 | -99.26814 | 37895 ft | 430 kts | 318° |
| 2026-05-05 00:17 | 29.98280 | -99.30816 | 37885 ft | 430 kts | 318° |
| 2026-05-05 00:18 | 30.03161 | -99.34826 | 37871 ft | 431 kts | 318° |
| 2026-05-05 00:18 | 30.08035 | -99.38835 | 37826 ft | 429 kts | 318° |
| 2026-05-05 00:19 | 30.12889 | -99.42830 | 37821 ft | 427 kts | 318° |
| 2026-05-05 00:19 | 30.17725 | -99.46821 | 37809 ft | 427 kts | 318° |
| 2026-05-05 00:20 | 30.22569 | -99.50824 | 37817 ft | 428 kts | 318° |
| 2026-05-05 00:20 | 30.27410 | -99.54827 | 37837 ft | 428 kts | 318° |
| 2026-05-05 00:21 | 30.32224 | -99.58812 | 37846 ft | 428 kts | 318° |
| 2026-05-05 00:21 | 30.37071 | -99.62829 | 37851 ft | 428 kts | 318° |
| 2026-05-05 00:22 | 30.41911 | -99.66843 | 37878 ft | 428 kts | 318° |
| 2026-05-05 00:22 | 30.46750 | -99.70865 | 37888 ft | 428 kts | 318° |
| 2026-05-05 00:23 | 30.51586 | -99.74892 | 37889 ft | 428 kts | 318° |
| 2026-05-05 00:23 | 30.56431 | -99.78928 | 37890 ft | 428 kts | 318° |
| 2026-05-05 00:24 | 30.61258 | -99.82965 | 37869 ft | 427 kts | 317° |
| 2026-05-05 00:24 | 30.65940 | -99.87185 | 37846 ft | 425 kts | 315° |
| 2026-05-05 00:25 | 30.69774 | -99.90753 | 37836 ft | 425 kts | 315° |
| 2026-05-05 00:25 | 30.74406 | -99.95034 | 37811 ft | 425 kts | 315° |
| 2026-05-05 00:26 | 30.79811 | -99.99985 | 37791 ft | 426 kts | 315° |
| 2026-05-05 00:26 | 30.83713 | -100.03551 | 37790 ft | 426 kts | 315° |
| 2026-05-05 00:27 | 30.88366 | -100.07807 | 37789 ft | 424 kts | 315° |
| 2026-05-05 00:27 | 30.92999 | -100.12053 | 37782 ft | 424 kts | 315° |
| 2026-05-05 00:28 | 30.97599 | -100.16277 | 37787 ft | 424 kts | 315° |
| 2026-05-05 00:28 | 31.02252 | -100.20555 | 37775 ft | 424 kts | 315° |
| 2026-05-05 00:29 | 31.06856 | -100.24792 | 37780 ft | 425 kts | 315° |
| 2026-05-05 00:29 | 31.11490 | -100.29063 | 37818 ft | 425 kts | 315° |
| 2026-05-05 00:30 | 31.16116 | -100.33329 | 37801 ft | 423 kts | 315° |
| 2026-05-05 00:30 | 31.20737 | -100.37598 | 37810 ft | 422 kts | 315° |
| 2026-05-05 00:31 | 31.25345 | -100.41862 | 37824 ft | 422 kts | 315° |
| 2026-05-05 00:31 | 31.29952 | -100.46131 | 37829 ft | 423 kts | 315° |
| 2026-05-05 00:32 | 31.34560 | -100.50404 | 37828 ft | 423 kts | 315° |
| 2026-05-05 00:32 | 31.39169 | -100.54682 | 37834 ft | 422 kts | 314° |
| 2026-05-05 00:33 | 31.43764 | -100.58955 | 37820 ft | 423 kts | 314° |
| 2026-05-05 00:33 | 31.48394 | -100.63272 | 37812 ft | 427 kts | 314° |
| 2026-05-05 00:34 | 31.53050 | -100.67612 | 37788 ft | 427 kts | 314° |
| 2026-05-05 00:34 | 31.57673 | -100.71923 | 37772 ft | 427 kts | 314° |
| 2026-05-05 00:35 | 31.62318 | -100.76264 | 37783 ft | 427 kts | 314° |
| 2026-05-05 00:35 | 31.66957 | -100.80603 | 37743 ft | 426 kts | 314° |
| 2026-05-05 00:36 | 31.71583 | -100.84939 | 37740 ft | 425 kts | 314° |
| 2026-05-05 00:36 | 31.76205 | -100.89277 | 37729 ft | 425 kts | 314° |
| 2026-05-05 00:37 | 31.80824 | -100.93619 | 37728 ft | 425 kts | 314° |
| 2026-05-05 00:37 | 31.85443 | -100.97965 | 37722 ft | 425 kts | 314° |
| 2026-05-05 00:38 | 31.90049 | -101.02303 | 37722 ft | 422 kts | 314° |
| 2026-05-05 00:38 | 31.94623 | -101.06615 | 37716 ft | 420 kts | 314° |
| 2026-05-05 00:39 | 31.99152 | -101.10894 | 37713 ft | 420 kts | 314° |
| 2026-05-05 00:39 | 32.03711 | -101.15207 | 37705 ft | 420 kts | 314° |
| 2026-05-05 00:40 | 32.08267 | -101.19523 | 37708 ft | 420 kts | 314° |
| 2026-05-05 00:40 | 32.12821 | -101.23842 | 37729 ft | 420 kts | 314° |
| 2026-05-05 00:41 | 32.17365 | -101.28155 | 37769 ft | 418 kts | 314° |
| 2026-05-05 00:41 | 32.21897 | -101.32464 | 37789 ft | 419 kts | 313° |
| 2026-05-05 00:42 | 32.26442 | -101.36795 | 37791 ft | 420 kts | 313° |
| 2026-05-05 00:42 | 32.30988 | -101.41129 | 37796 ft | 420 kts | 313° |
| 2026-05-05 00:43 | 32.35531 | -101.45466 | 37696 ft | 420 kts | 313° |
| 2026-05-05 00:43 | 32.40037 | -101.49793 | 37703 ft | 420 kts | 312° |
| 2026-05-05 00:44 | 32.44399 | -101.54370 | 37695 ft | 418 kts | 310° |
| 2026-05-05 00:44 | 32.48686 | -101.59023 | 37699 ft | 418 kts | 310° |
| 2026-05-05 00:45 | 32.52996 | -101.63654 | 37707 ft | 418 kts | 310° |
| 2026-05-05 00:45 | 32.57329 | -101.68270 | 37745 ft | 419 kts | 310° |
| 2026-05-05 00:46 | 32.61673 | -101.72888 | 37786 ft | 420 kts | 310° |
| 2026-05-05 00:46 | 32.66017 | -101.77516 | 37799 ft | 420 kts | 310° |
| 2026-05-05 00:47 | 32.70357 | -101.82147 | 37827 ft | 420 kts | 310° |
| 2026-05-05 00:47 | 32.74700 | -101.86789 | 37831 ft | 420 kts | 310° |
| 2026-05-05 00:48 | 32.79036 | -101.91428 | 37831 ft | 420 kts | 310° |
| 2026-05-05 00:48 | 32.83345 | -101.96047 | 37831 ft | 420 kts | 310° |
| 2026-05-05 00:49 | 32.87678 | -102.00697 | 37807 ft | 420 kts | 310° |
| 2026-05-05 00:49 | 32.92016 | -102.05356 | 37775 ft | 420 kts | 309° |
| 2026-05-05 00:50 | 32.96360 | -102.10032 | 37747 ft | 422 kts | 309° |
| 2026-05-05 00:50 | 33.00715 | -102.14725 | 37739 ft | 422 kts | 309° |
| 2026-05-05 00:51 | 33.05069 | -102.19422 | 37719 ft | 422 kts | 309° |
| 2026-05-05 00:51 | 33.09421 | -102.24123 | 37713 ft | 422 kts | 309° |
| 2026-05-05 00:52 | 33.13756 | -102.28812 | 37703 ft | 421 kts | 309° |
| 2026-05-05 00:52 | 33.18086 | -102.33504 | 37704 ft | 420 kts | 309° |
| 2026-05-05 00:53 | 33.22384 | -102.38169 | 37721 ft | 420 kts | 309° |
| 2026-05-05 00:53 | 33.26713 | -102.42874 | 37737 ft | 422 kts | 309° |
| 2026-05-05 00:54 | 33.31064 | -102.47611 | 37754 ft | 424 kts | 309° |
| 2026-05-05 00:54 | 33.35421 | -102.52357 | 37768 ft | 423 kts | 309° |
| 2026-05-05 00:55 | 33.39765 | -102.57093 | 37769 ft | 422 kts | 309° |
| 2026-05-05 00:55 | 33.44100 | -102.61831 | 37766 ft | 422 kts | 309° |
| 2026-05-05 00:56 | 33.48429 | -102.66569 | 37754 ft | 422 kts | 309° |
| 2026-05-05 00:56 | 33.52756 | -102.71311 | 37739 ft | 422 kts | 309° |
| 2026-05-05 00:57 | 33.57082 | -102.76056 | 37726 ft | 420 kts | 308° |
| 2026-05-05 00:57 | 33.61380 | -102.80775 | 37699 ft | 418 kts | 308° |
| 2026-05-05 00:58 | 33.65636 | -102.85462 | 37694 ft | 418 kts | 308° |
| 2026-05-05 00:58 | 33.69919 | -102.90183 | 37696 ft | 418 kts | 308° |
| 2026-05-05 00:59 | 33.74200 | -102.94908 | 37694 ft | 418 kts | 308° |
| 2026-05-05 00:59 | 33.78482 | -102.99641 | 37694 ft | 418 kts | 308° |
| 2026-05-05 01:00 | 33.82756 | -103.04369 | 37696 ft | 418 kts | 308° |
| 2026-05-05 01:00 | 33.87034 | -103.09110 | 37699 ft | 417 kts | 308° |
| 2026-05-05 01:01 | 33.91302 | -103.13846 | 37688 ft | 417 kts | 307° |
| 2026-05-05 01:01 | 33.95570 | -103.18594 | 37692 ft | 419 kts | 307° |
| 2026-05-05 01:02 | 33.99857 | -103.23367 | 37694 ft | 419 kts | 307° |
| 2026-05-05 01:02 | 34.04136 | -103.28133 | 37692 ft | 417 kts | 307° |
| 2026-05-05 01:03 | 34.08365 | -103.32850 | 37734 ft | 416 kts | 307° |
| 2026-05-05 01:03 | 34.12611 | -103.37598 | 37736 ft | 416 kts | 307° |
| 2026-05-05 01:04 | 34.16845 | -103.42340 | 37753 ft | 416 kts | 307° |
| 2026-05-05 01:04 | 34.23212 | -103.49482 | 37769 ft | 416 kts | 307° |
| 2026-05-05 01:05 | 34.27449 | -103.54239 | 37761 ft | 414 kts | 307° |
| 2026-05-05 01:05 | 34.31665 | -103.58981 | 37742 ft | 414 kts | 307° |
| 2026-05-05 01:06 | 34.35875 | -103.63727 | 37727 ft | 414 kts | 307° |
| 2026-05-05 01:06 | 34.40059 | -103.68450 | 37690 ft | 414 kts | 307° |
| 2026-05-05 01:07 | 34.44265 | -103.73202 | 37661 ft | 414 kts | 307° |
| 2026-05-05 01:07 | 34.48474 | -103.77965 | 37663 ft | 413 kts | 307° |
| 2026-05-05 01:08 | 34.52667 | -103.82714 | 37649 ft | 413 kts | 307° |
| 2026-05-05 01:08 | 34.56862 | -103.87477 | 37643 ft | 414 kts | 307° |
| 2026-05-05 01:09 | 34.61072 | -103.92268 | 37653 ft | 416 kts | 307° |
| 2026-05-05 01:09 | 34.65296 | -103.97074 | 37653 ft | 416 kts | 307° |
| 2026-05-05 01:10 | 34.69517 | -104.01882 | 37676 ft | 416 kts | 307° |
| 2026-05-05 01:10 | 34.73741 | -104.06703 | 37655 ft | 417 kts | 307° |
| 2026-05-05 01:11 | 34.77973 | -104.11542 | 37652 ft | 417 kts | 307° |
| 2026-05-05 01:11 | 34.82170 | -104.16346 | 37653 ft | 417 kts | 307° |
| 2026-05-05 01:12 | 34.86417 | -104.21216 | 37654 ft | 417 kts | 306° |
| 2026-05-05 01:12 | 34.90618 | -104.26043 | 37683 ft | 419 kts | 306° |
| 2026-05-05 01:13 | 34.94853 | -104.30910 | 37711 ft | 417 kts | 307° |
| 2026-05-05 01:13 | 34.99072 | -104.35765 | 37734 ft | 417 kts | 307° |
| 2026-05-05 01:14 | 35.03283 | -104.40621 | 37754 ft | 417 kts | 307° |
| 2026-05-05 01:14 | 35.07489 | -104.45481 | 37760 ft | 416 kts | 307° |
| 2026-05-05 01:15 | 35.11696 | -104.50350 | 37753 ft | 416 kts | 306° |
| 2026-05-05 01:15 | 35.15896 | -104.55218 | 37652 ft | 416 kts | 306° |
| 2026-05-05 01:16 | 35.20095 | -104.60088 | 37653 ft | 415 kts | 306° |
| 2026-05-05 01:16 | 35.23579 | -104.64138 | 37654 ft | 416 kts | 306° |
| 2026-05-05 01:17 | 35.27777 | -104.69024 | 37660 ft | 416 kts | 306° |
| 2026-05-05 01:17 | 35.31971 | -104.73907 | 37668 ft | 416 kts | 306° |
| 2026-05-05 01:18 | 35.36169 | -104.78797 | 37672 ft | 416 kts | 307° |
| 2026-05-05 01:18 | 35.40353 | -104.83692 | 37667 ft | 416 kts | 306° |
| 2026-05-05 01:19 | 35.44510 | -104.88563 | 37671 ft | 415 kts | 306° |
| 2026-05-05 01:19 | 35.48677 | -104.93451 | 37650 ft | 415 kts | 306° |
| 2026-05-05 01:20 | 35.52870 | -104.98382 | 37687 ft | 419 kts | 306° |
| 2026-05-05 01:20 | 35.54982 | -105.00865 | 37885 ft | 420 kts | 306° |
| 2026-05-05 01:20 | 35.57091 | -105.03344 | 37925 ft | 419 kts | 306° |
| 2026-05-05 01:21 | 35.61298 | -105.08289 | 37943 ft | 417 kts | 306° |
| 2026-05-05 01:21 | 35.65487 | -105.13229 | 37942 ft | 417 kts | 306° |
| 2026-05-05 01:22 | 35.69853 | -105.18007 | 37945 ft | 423 kts | 310° |
| 2026-05-05 01:22 | 35.74467 | -105.22534 | 37921 ft | 424 kts | 311° |
| 2026-05-05 01:23 | 35.79063 | -105.27066 | 37882 ft | 423 kts | 310° |
| 2026-05-05 01:23 | 35.83612 | -105.31654 | 37833 ft | 424 kts | 310° |
| 2026-05-05 01:24 | 35.88176 | -105.36311 | 37763 ft | 427 kts | 310° |
| 2026-05-05 01:24 | 35.92738 | -105.40959 | 37764 ft | 427 kts | 310° |
| 2026-05-05 01:25 | 35.97305 | -105.45645 | 37779 ft | 427 kts | 310° |
| 2026-05-05 01:25 | 36.01890 | -105.50330 | 37791 ft | 426 kts | 310° |
| 2026-05-05 01:26 | 36.06447 | -105.54989 | 37795 ft | 424 kts | 310° |
| 2026-05-05 01:26 | 36.10993 | -105.59636 | 37793 ft | 424 kts | 310° |
| 2026-05-05 01:27 | 36.15524 | -105.64306 | 37870 ft | 424 kts | 310° |
| 2026-05-05 01:27 | 36.20016 | -105.68945 | 37810 ft | 417 kts | 309° |
| 2026-05-05 01:28 | 36.24461 | -105.73517 | 37789 ft | 414 kts | 309° |
| 2026-05-05 01:28 | 36.28861 | -105.78059 | 37791 ft | 414 kts | 309° |
| 2026-05-05 01:29 | 36.33283 | -105.82636 | 37774 ft | 413 kts | 309° |
| 2026-05-05 01:29 | 36.37694 | -105.87206 | 37779 ft | 413 kts | 309° |
| 2026-05-05 01:30 | 36.42109 | -105.91787 | 37789 ft | 413 kts | 309° |
| 2026-05-05 01:30 | 36.46508 | -105.96355 | 37779 ft | 412 kts | 309° |
| 2026-05-05 01:31 | 36.50898 | -106.00930 | 37747 ft | 412 kts | 309° |
| 2026-05-05 01:31 | 36.55315 | -106.05558 | 37782 ft | 418 kts | 309° |
| 2026-05-05 01:32 | 36.59767 | -106.10191 | 37789 ft | 420 kts | 309° |
| 2026-05-05 01:32 | 36.64250 | -106.14860 | 37803 ft | 420 kts | 309° |
| 2026-05-05 01:33 | 36.68723 | -106.19550 | 37801 ft | 420 kts | 309° |
| 2026-05-05 01:33 | 36.73190 | -106.24236 | 37824 ft | 419 kts | 309° |
| 2026-05-05 01:34 | 36.77652 | -106.28921 | 37834 ft | 419 kts | 309° |
| 2026-05-05 01:34 | 36.82120 | -106.33606 | 37873 ft | 420 kts | 309° |
| 2026-05-05 01:35 | 36.86582 | -106.38306 | 37845 ft | 419 kts | 308° |
| 2026-05-05 01:35 | 36.91036 | -106.43014 | 37844 ft | 419 kts | 308° |
| 2026-05-05 01:36 | 36.95492 | -106.47727 | 37859 ft | 420 kts | 308° |
| 2026-05-05 01:36 | 36.99946 | -106.52436 | 37862 ft | 420 kts | 308° |
| 2026-05-05 01:37 | 37.04398 | -106.57161 | 37860 ft | 418 kts | 308° |
| 2026-05-05 01:37 | 37.08814 | -106.61871 | 37850 ft | 419 kts | 307° |
| 2026-05-05 01:38 | 37.13248 | -106.66619 | 37874 ft | 421 kts | 308° |
| 2026-05-05 01:38 | 37.17722 | -106.71354 | 37897 ft | 421 kts | 308° |
| 2026-05-05 01:39 | 37.22210 | -106.76075 | 37890 ft | 420 kts | 307° |
| 2026-05-05 01:39 | 37.26657 | -106.80834 | 37906 ft | 420 kts | 307° |
| 2026-05-05 01:40 | 37.31095 | -106.85611 | 37897 ft | 420 kts | 307° |
| 2026-05-05 01:40 | 37.33314 | -106.88001 | 38004 ft | 420 kts | 307° |
| 2026-05-05 01:40 | 37.35539 | -106.90388 | 38011 ft | 421 kts | 307° |
| 2026-05-05 01:41 | 37.39983 | -106.95169 | 38007 ft | 420 kts | 307° |
| 2026-05-05 01:41 | 37.44413 | -106.99937 | 37982 ft | 416 kts | 308° |
| 2026-05-05 01:42 | 37.48784 | -107.04632 | 37982 ft | 413 kts | 308° |
| 2026-05-05 01:42 | 37.53174 | -107.09381 | 37959 ft | 417 kts | 307° |
| 2026-05-05 01:43 | 37.57600 | -107.14195 | 37933 ft | 422 kts | 307° |
| 2026-05-05 01:43 | 37.62063 | -107.19031 | 37948 ft | 423 kts | 307° |
| 2026-05-05 01:44 | 37.66526 | -107.23878 | 37945 ft | 425 kts | 307° |
| 2026-05-05 01:44 | 37.70976 | -107.28684 | 37944 ft | 422 kts | 307° |
| 2026-05-05 01:45 | 37.75409 | -107.33514 | 37961 ft | 421 kts | 307° |
| 2026-05-05 01:45 | 37.79851 | -107.38341 | 37956 ft | 422 kts | 307° |
| 2026-05-05 01:46 | 37.84285 | -107.43192 | 37964 ft | 423 kts | 306° |
| 2026-05-05 01:46 | 37.88744 | -107.48085 | 37946 ft | 423 kts | 306° |
| 2026-05-05 01:47 | 37.93210 | -107.52953 | 37934 ft | 424 kts | 306° |
| 2026-05-05 01:47 | 37.97687 | -107.57866 | 37922 ft | 428 kts | 307° |
| 2026-05-05 01:48 | 38.02186 | -107.62821 | 37935 ft | 428 kts | 307° |
| 2026-05-05 01:48 | 38.06694 | -107.67776 | 37897 ft | 429 kts | 307° |
| 2026-05-05 01:49 | 38.11203 | -107.72735 | 37901 ft | 429 kts | 306° |
| 2026-05-05 01:49 | 38.15682 | -107.77683 | 37854 ft | 430 kts | 306° |
| 2026-05-05 01:50 | 38.20197 | -107.82689 | 37856 ft | 431 kts | 306° |
| 2026-05-05 01:50 | 38.24738 | -107.87729 | 37864 ft | 434 kts | 306° |
| 2026-05-05 01:51 | 38.29296 | -107.92788 | 37866 ft | 435 kts | 307° |
| 2026-05-05 01:51 | 38.33849 | -107.97852 | 37881 ft | 434 kts | 306° |
| 2026-05-05 01:52 | 38.38410 | -108.02926 | 37885 ft | 435 kts | 306° |
| 2026-05-05 01:52 | 38.42959 | -108.08001 | 37890 ft | 434 kts | 306° |
| 2026-05-05 01:53 | 38.47466 | -108.13048 | 37872 ft | 434 kts | 306° |
| 2026-05-05 01:53 | 38.52001 | -108.18120 | 37848 ft | 434 kts | 306° |
| 2026-05-05 01:54 | 38.56545 | -108.23218 | 37827 ft | 435 kts | 306° |
| 2026-05-05 01:54 | 38.61088 | -108.28322 | 37780 ft | 433 kts | 305° |
| 2026-05-05 01:55 | 38.65592 | -108.33418 | 37761 ft | 433 kts | 305° |
| 2026-05-05 01:55 | 38.70106 | -108.38521 | 37807 ft | 433 kts | 305° |
| 2026-05-05 01:56 | 38.74635 | -108.43640 | 37780 ft | 434 kts | 305° |
| 2026-05-05 01:56 | 38.79186 | -108.48773 | 37763 ft | 437 kts | 304° |
| 2026-05-05 01:57 | 38.83746 | -108.53949 | 37769 ft | 438 kts | 304° |
| 2026-05-05 01:57 | 38.88285 | -108.59143 | 37781 ft | 438 kts | 304° |
| 2026-05-05 01:58 | 38.92828 | -108.64354 | 37787 ft | 438 kts | 304° |
| 2026-05-05 01:58 | 38.97394 | -108.69548 | 37795 ft | 438 kts | 304° |
| 2026-05-05 01:59 | 39.01966 | -108.74707 | 37790 ft | 436 kts | 304° |
| 2026-05-05 01:59 | 39.06269 | -108.79995 | 37718 ft | 422 kts | 297° |
| 2026-05-05 02:00 | 39.09907 | -108.85874 | 37719 ft | 418 kts | 294° |
| 2026-05-05 02:00 | 39.13420 | -108.91851 | 37710 ft | 419 kts | 294° |
| 2026-05-05 02:01 | 39.16914 | -108.97873 | 37717 ft | 419 kts | 294° |
| 2026-05-05 02:01 | 39.20420 | -109.03860 | 37717 ft | 418 kts | 294° |
| 2026-05-05 02:02 | 39.23928 | -109.09845 | 37715 ft | 418 kts | 294° |
| 2026-05-05 02:02 | 39.27432 | -109.15842 | 37719 ft | 420 kts | 294° |
| 2026-05-05 02:03 | 39.30952 | -109.21889 | 37736 ft | 422 kts | 295° |
| 2026-05-05 02:03 | 39.34483 | -109.27950 | 37733 ft | 422 kts | 295° |
| 2026-05-05 02:04 | 39.38028 | -109.34021 | 37752 ft | 423 kts | 296° |
| 2026-05-05 02:04 | 39.41558 | -109.40110 | 37769 ft | 423 kts | 295° |
| 2026-05-05 02:05 | 39.45040 | -109.46187 | 37787 ft | 423 kts | 294° |
| 2026-05-05 02:05 | 39.48562 | -109.52328 | 37778 ft | 427 kts | 295° |
| 2026-05-05 02:06 | 39.52140 | -109.58514 | 37796 ft | 430 kts | 295° |
| 2026-05-05 02:06 | 39.55126 | -109.63666 | 37798 ft | 430 kts | 296° |
| 2026-05-05 02:07 | 39.58706 | -109.69877 | 37803 ft | 430 kts | 295° |
| 2026-05-05 02:07 | 39.62268 | -109.76108 | 37817 ft | 431 kts | 295° |
| 2026-05-05 02:08 | 39.65845 | -109.82371 | 37806 ft | 434 kts | 296° |
| 2026-05-05 02:08 | 39.69447 | -109.88698 | 37815 ft | 437 kts | 296° |
| 2026-05-05 02:09 | 39.73074 | -109.95043 | 37818 ft | 437 kts | 296° |
| 2026-05-05 02:09 | 39.76690 | -110.01399 | 37818 ft | 437 kts | 296° |
| 2026-05-05 02:10 | 39.80292 | -110.07765 | 37845 ft | 439 kts | 297° |
| 2026-05-05 02:10 | 39.83922 | -110.14219 | 37795 ft | 445 kts | 297° |
| 2026-05-05 02:11 | 39.87604 | -110.20718 | 37829 ft | 447 kts | 297° |
| 2026-05-05 02:11 | 39.91300 | -110.27241 | 37838 ft | 447 kts | 297° |
| 2026-05-05 02:12 | 39.96822 | -110.37047 | 37843 ft | 449 kts | 298° |
| 2026-05-05 02:13 | 40.00523 | -110.43647 | 37844 ft | 453 kts | 298° |
| 2026-05-05 02:13 | 40.04245 | -110.50286 | 37866 ft | 455 kts | 298° |
| 2026-05-05 02:14 | 40.07986 | -110.57000 | 37876 ft | 458 kts | 298° |
| 2026-05-05 02:14 | 40.11736 | -110.63738 | 37887 ft | 459 kts | 299° |
| 2026-05-05 02:15 | 40.15504 | -110.70509 | 37891 ft | 461 kts | 299° |
| 2026-05-05 02:15 | 40.19282 | -110.77297 | 37895 ft | 461 kts | 299° |
| 2026-05-05 02:16 | 40.23026 | -110.84051 | 37902 ft | 462 kts | 299° |
| 2026-05-05 02:16 | 40.26801 | -110.90884 | 37935 ft | 464 kts | 299° |
| 2026-05-05 02:17 | 40.30590 | -110.97756 | 37913 ft | 466 kts | 299° |
| 2026-05-05 02:17 | 40.34368 | -111.04647 | 37893 ft | 466 kts | 299° |
| 2026-05-05 02:18 | 40.38159 | -111.11551 | 37897 ft | 466 kts | 299° |
| 2026-05-05 02:18 | 40.41955 | -111.18462 | 37917 ft | 469 kts | 300° |
| 2026-05-05 02:19 | 40.45764 | -111.25424 | 37893 ft | 470 kts | 300° |
| 2026-05-05 02:19 | 40.49571 | -111.32401 | 37888 ft | 470 kts | 299° |
| 2026-05-05 02:20 | 40.53375 | -111.39391 | 37890 ft | 470 kts | 299° |
| 2026-05-05 02:20 | 40.57174 | -111.46387 | 37904 ft | 470 kts | 300° |
| 2026-05-05 02:21 | 40.60962 | -111.53382 | 37876 ft | 469 kts | 299° |
| 2026-05-05 02:21 | 40.64744 | -111.60382 | 37801 ft | 469 kts | 299° |
| 2026-05-05 02:22 | 40.68520 | -111.67383 | 37811 ft | 469 kts | 299° |
| 2026-05-05 02:22 | 40.72290 | -111.74393 | 37806 ft | 469 kts | 299° |
| 2026-05-05 02:23 | 40.76068 | -111.81415 | 37790 ft | 470 kts | 299° |
| 2026-05-05 02:23 | 40.79851 | -111.88478 | 37794 ft | 472 kts | 299° |
| 2026-05-05 02:24 | 40.83645 | -111.95581 | 37794 ft | 474 kts | 299° |
| 2026-05-05 02:24 | 40.87859 | -112.02363 | 37912 ft | 480 kts | 305° |
| 2026-05-05 02:24 | 40.90067 | -112.05672 | 38024 ft | 479 kts | 305° |
| 2026-05-05 02:25 | 40.92285 | -112.08958 | 38093 ft | 479 kts | 305° |
| 2026-05-05 02:25 | 40.96730 | -112.15523 | 38190 ft | 480 kts | 305° |
| 2026-05-05 02:26 | 41.01178 | -112.22116 | 38240 ft | 480 kts | 305° |
| 2026-05-05 02:26 | 41.03395 | -112.25416 | 38354 ft | 479 kts | 305° |
| 2026-05-05 02:26 | 41.05603 | -112.28702 | 38490 ft | 476 kts | 305° |
| 2026-05-05 02:27 | 41.09971 | -112.35215 | 38549 ft | 476 kts | 305° |
| 2026-05-05 02:27 | 41.14367 | -112.41792 | 38589 ft | 477 kts | 305° |
| 2026-05-05 02:28 | 41.18767 | -112.48390 | 38613 ft | 478 kts | 305° |
| 2026-05-05 02:28 | 41.23177 | -112.55018 | 38649 ft | 479 kts | 305° |
| 2026-05-05 02:29 | 41.27585 | -112.61655 | 38706 ft | 479 kts | 305° |
| 2026-05-05 02:29 | 41.31989 | -112.68300 | 38764 ft | 479 kts | 305° |
| 2026-05-05 02:30 | 41.36391 | -112.74960 | 38809 ft | 479 kts | 306° |
| 2026-05-05 02:30 | 41.40792 | -112.81633 | 38830 ft | 481 kts | 306° |
| 2026-05-05 02:31 | 41.45177 | -112.88295 | 38844 ft | 482 kts | 306° |
| 2026-05-05 02:31 | 41.49591 | -112.95017 | 38903 ft | 482 kts | 306° |
| 2026-05-05 02:32 | 41.53980 | -113.01710 | 39381 ft | 473 kts | 307° |
| 2026-05-05 02:32 | 41.56131 | -113.04992 | 39638 ft | 469 kts | 307° |
| 2026-05-05 02:32 | 41.58274 | -113.08269 | 39686 ft | 466 kts | 306° |
| 2026-05-05 02:33 | 41.62516 | -113.14777 | 39694 ft | 465 kts | 307° |
| 2026-05-05 02:33 | 41.66768 | -113.21321 | 39701 ft | 467 kts | 307° |
| 2026-05-05 02:34 | 41.71034 | -113.27889 | 39710 ft | 468 kts | 307° |
| 2026-05-05 02:34 | 41.75305 | -113.34477 | 39713 ft | 468 kts | 307° |
| 2026-05-05 02:35 | 41.79563 | -113.41063 | 39724 ft | 468 kts | 308° |
| 2026-05-05 02:35 | 41.83831 | -113.47680 | 39727 ft | 469 kts | 308° |
| 2026-05-05 02:36 | 41.88075 | -113.54273 | 39735 ft | 470 kts | 308° |
| 2026-05-05 02:36 | 41.92378 | -113.60964 | 39745 ft | 470 kts | 308° |
| 2026-05-05 02:37 | 41.96625 | -113.67591 | 39745 ft | 471 kts | 309° |
| 2026-05-05 02:37 | 42.00894 | -113.74269 | 39744 ft | 471 kts | 309° |
| 2026-05-05 02:38 | 42.05163 | -113.80963 | 39741 ft | 472 kts | 309° |
| 2026-05-05 02:38 | 42.09440 | -113.87682 | 39736 ft | 473 kts | 309° |
| 2026-05-05 02:39 | 42.13719 | -113.94418 | 39728 ft | 474 kts | 309° |
| 2026-05-05 02:39 | 42.18002 | -114.01175 | 39730 ft | 474 kts | 309° |
| 2026-05-05 02:40 | 42.22278 | -114.07939 | 39717 ft | 474 kts | 309° |
| 2026-05-05 02:40 | 42.26557 | -114.14722 | 39711 ft | 475 kts | 309° |
| 2026-05-05 02:41 | 42.30836 | -114.21521 | 39711 ft | 475 kts | 309° |
| 2026-05-05 02:41 | 42.35111 | -114.28330 | 39700 ft | 475 kts | 309° |
| 2026-05-05 02:42 | 42.39381 | -114.35146 | 39697 ft | 475 kts | 309° |
| 2026-05-05 02:42 | 42.43646 | -114.41968 | 39776 ft | 474 kts | 309° |
| 2026-05-05 02:43 | 42.47904 | -114.48796 | 39776 ft | 474 kts | 309° |
| 2026-05-05 02:43 | 42.52209 | -114.55565 | 39776 ft | 473 kts | 311° |
| 2026-05-05 02:44 | 42.56564 | -114.62240 | 39761 ft | 473 kts | 312° |
| 2026-05-05 02:44 | 42.60923 | -114.68948 | 39735 ft | 474 kts | 311° |
| 2026-05-05 02:45 | 42.65231 | -114.75630 | 39719 ft | 473 kts | 312° |
| 2026-05-05 02:45 | 42.69557 | -114.82368 | 39706 ft | 473 kts | 312° |
| 2026-05-05 02:46 | 42.73878 | -114.89113 | 39689 ft | 472 kts | 312° |
| 2026-05-05 02:46 | 42.78190 | -114.95861 | 39671 ft | 472 kts | 312° |
| 2026-05-05 02:47 | 42.82499 | -115.02620 | 39675 ft | 472 kts | 312° |
| 2026-05-05 02:47 | 42.86798 | -115.09376 | 39680 ft | 472 kts | 312° |
| 2026-05-05 02:48 | 42.91093 | -115.16142 | 39702 ft | 472 kts | 312° |
| 2026-05-05 02:48 | 42.95385 | -115.22923 | 39686 ft | 472 kts | 313° |
| 2026-05-05 02:49 | 42.99672 | -115.29707 | 39681 ft | 472 kts | 313° |
| 2026-05-05 02:49 | 43.03963 | -115.36513 | 39678 ft | 472 kts | 313° |
| 2026-05-05 02:50 | 43.08242 | -115.43320 | 39681 ft | 473 kts | 313° |
| 2026-05-05 02:50 | 43.12541 | -115.50171 | 39688 ft | 475 kts | 313° |
| 2026-05-05 02:51 | 43.16837 | -115.57035 | 39693 ft | 475 kts | 313° |
| 2026-05-05 02:51 | 43.21104 | -115.63870 | 39684 ft | 475 kts | 313° |
| 2026-05-05 02:52 | 43.25390 | -115.70751 | 39691 ft | 475 kts | 313° |
| 2026-05-05 02:52 | 43.29680 | -115.77654 | 39687 ft | 475 kts | 313° |
| 2026-05-05 02:53 | 43.33963 | -115.84563 | 39684 ft | 475 kts | 313° |
| 2026-05-05 02:53 | 43.38231 | -115.91468 | 39684 ft | 474 kts | 314° |
| 2026-05-05 02:54 | 43.42492 | -115.98372 | 39696 ft | 473 kts | 314° |
| 2026-05-05 02:54 | 43.46053 | -116.04155 | 39706 ft | 473 kts | 314° |
| 2026-05-05 02:55 | 43.50299 | -116.11068 | 39718 ft | 473 kts | 314° |
| 2026-05-05 02:55 | 43.54521 | -116.17897 | 39714 ft | 469 kts | 317° |
| 2026-05-05 02:56 | 43.59229 | -116.24027 | 39720 ft | 465 kts | 322° |
| 2026-05-05 02:56 | 43.64067 | -116.29961 | 39699 ft | 465 kts | 322° |
| 2026-05-05 02:57 | 43.68926 | -116.35876 | 39706 ft | 465 kts | 322° |
| 2026-05-05 02:57 | 43.73771 | -116.41798 | 39709 ft | 465 kts | 322° |
| 2026-05-05 02:58 | 43.78609 | -116.47738 | 39709 ft | 465 kts | 322° |
| 2026-05-05 02:58 | 43.83439 | -116.53692 | 39710 ft | 463 kts | 322° |
| 2026-05-05 02:59 | 43.88240 | -116.59618 | 39709 ft | 462 kts | 322° |
| 2026-05-05 02:59 | 43.93034 | -116.65547 | 39718 ft | 462 kts | 322° |
| 2026-05-05 03:00 | 43.97818 | -116.71479 | 39724 ft | 460 kts | 322° |
| 2026-05-05 03:00 | 44.02575 | -116.77393 | 39730 ft | 458 kts | 322° |
| 2026-05-05 03:01 | 44.07319 | -116.83301 | 39736 ft | 457 kts | 322° |
| 2026-05-05 03:01 | 44.12056 | -116.89213 | 39733 ft | 457 kts | 323° |
| 2026-05-05 03:02 | 44.16781 | -116.95126 | 39730 ft | 457 kts | 323° |
| 2026-05-05 03:02 | 44.21509 | -117.01053 | 39736 ft | 457 kts | 323° |
| 2026-05-05 03:03 | 44.26231 | -117.06986 | 39743 ft | 457 kts | 323° |
| 2026-05-05 03:03 | 44.30952 | -117.12931 | 39754 ft | 456 kts | 323° |
| 2026-05-05 03:04 | 44.35659 | -117.18873 | 39755 ft | 456 kts | 323° |
| 2026-05-05 03:04 | 44.40359 | -117.24811 | 39772 ft | 456 kts | 323° |
| 2026-05-05 03:05 | 44.45051 | -117.30760 | 39780 ft | 455 kts | 323° |
| 2026-05-05 03:05 | 44.49721 | -117.36707 | 39790 ft | 453 kts | 323° |
| 2026-05-05 03:06 | 44.54380 | -117.42649 | 39793 ft | 453 kts | 323° |
| 2026-05-05 03:06 | 44.59036 | -117.48590 | 39792 ft | 453 kts | 323° |
| 2026-05-05 03:07 | 44.63688 | -117.54542 | 39830 ft | 452 kts | 323° |
| 2026-05-05 03:07 | 44.68342 | -117.60509 | 39839 ft | 452 kts | 323° |
| 2026-05-05 03:08 | 44.72983 | -117.66475 | 39849 ft | 452 kts | 323° |
| 2026-05-05 03:08 | 44.77622 | -117.72455 | 39854 ft | 452 kts | 323° |
| 2026-05-05 03:09 | 44.82223 | -117.78399 | 39858 ft | 452 kts | 323° |
| 2026-05-05 03:09 | 44.86778 | -117.84522 | 39861 ft | 455 kts | 319° |
| 2026-05-05 03:10 | 44.91135 | -117.90995 | 39863 ft | 455 kts | 320° |
| 2026-05-05 03:10 | 44.95501 | -117.97427 | 39861 ft | 452 kts | 320° |
| 2026-05-05 03:11 | 44.99854 | -118.03813 | 39868 ft | 451 kts | 320° |
| 2026-05-05 03:11 | 45.04212 | -118.10210 | 39872 ft | 451 kts | 320° |
| 2026-05-05 03:12 | 45.08567 | -118.16615 | 39888 ft | 451 kts | 320° |
| 2026-05-05 03:12 | 45.12917 | -118.23027 | 39904 ft | 451 kts | 320° |
| 2026-05-05 03:13 | 45.17266 | -118.29452 | 39901 ft | 451 kts | 320° |
| 2026-05-05 03:13 | 45.21604 | -118.35876 | 39907 ft | 452 kts | 320° |
| 2026-05-05 03:14 | 45.25943 | -118.42318 | 39912 ft | 452 kts | 320° |
| 2026-05-05 03:14 | 45.30255 | -118.48733 | 39909 ft | 451 kts | 320° |
| 2026-05-05 03:15 | 45.34585 | -118.55190 | 39909 ft | 451 kts | 320° |
| 2026-05-05 03:15 | 45.38912 | -118.61658 | 39881 ft | 451 kts | 320° |
| 2026-05-05 03:16 | 45.43231 | -118.68132 | 39865 ft | 451 kts | 319° |
| 2026-05-05 03:16 | 45.47557 | -118.74629 | 39834 ft | 451 kts | 320° |
| 2026-05-05 03:17 | 45.51874 | -118.81127 | 39815 ft | 451 kts | 319° |
| 2026-05-05 03:17 | 45.56187 | -118.87637 | 39805 ft | 452 kts | 319° |
| 2026-05-05 03:18 | 45.60505 | -118.94170 | 39805 ft | 452 kts | 319° |
| 2026-05-05 03:18 | 45.64813 | -119.00704 | 39804 ft | 452 kts | 319° |
| 2026-05-05 03:19 | 45.71245 | -119.10488 | 39763 ft | 451 kts | 319° |
| 2026-05-05 03:19 | 45.75537 | -119.17036 | 39757 ft | 451 kts | 319° |
| 2026-05-05 03:20 | 45.79830 | -119.23600 | 39757 ft | 451 kts | 319° |
| 2026-05-05 03:20 | 45.84118 | -119.30173 | 39757 ft | 451 kts | 319° |
| 2026-05-05 03:21 | 45.88398 | -119.36750 | 39756 ft | 451 kts | 319° |
| 2026-05-05 03:21 | 45.92671 | -119.43333 | 39755 ft | 451 kts | 319° |
| 2026-05-05 03:22 | 45.96941 | -119.49926 | 39753 ft | 451 kts | 319° |
| 2026-05-05 03:22 | 46.01209 | -119.56533 | 39747 ft | 450 kts | 319° |
| 2026-05-05 03:23 | 46.05459 | -119.63130 | 39749 ft | 449 kts | 319° |
| 2026-05-05 03:23 | 46.09705 | -119.69734 | 39745 ft | 449 kts | 319° |
| 2026-05-05 03:24 | 46.13947 | -119.76348 | 39748 ft | 449 kts | 319° |
| 2026-05-05 03:24 | 46.18183 | -119.82968 | 39750 ft | 448 kts | 319° |
| 2026-05-05 03:25 | 46.22404 | -119.89585 | 39751 ft | 447 kts | 319° |
| 2026-05-05 03:25 | 46.26613 | -119.96195 | 39756 ft | 447 kts | 319° |
| 2026-05-05 03:26 | 46.28716 | -119.99505 | 39596 ft | 447 kts | 319° |
| 2026-05-05 03:26 | 46.30816 | -120.02814 | 39359 ft | 447 kts | 319° |
| 2026-05-05 03:26 | 46.32888 | -120.06082 | 39107 ft | 447 kts | 319° |
| 2026-05-05 03:26 | 46.34988 | -120.09399 | 38881 ft | 447 kts | 319° |
| 2026-05-05 03:27 | 46.37086 | -120.12716 | 38658 ft | 447 kts | 319° |
| 2026-05-05 03:27 | 46.39184 | -120.16038 | 38416 ft | 447 kts | 320° |
| 2026-05-05 03:27 | 46.41282 | -120.19364 | 38142 ft | 447 kts | 320° |
| 2026-05-05 03:27 | 46.43378 | -120.22688 | 37875 ft | 447 kts | 319° |
| 2026-05-05 03:28 | 46.45477 | -120.26021 | 37606 ft | 448 kts | 319° |
| 2026-05-05 03:28 | 46.47577 | -120.29361 | 37341 ft | 449 kts | 319° |
| 2026-05-05 03:28 | 46.49686 | -120.32719 | 37058 ft | 450 kts | 319° |
| 2026-05-05 03:28 | 46.51800 | -120.36092 | 36799 ft | 451 kts | 319° |
| 2026-05-05 03:29 | 46.53912 | -120.39465 | 36539 ft | 452 kts | 319° |
| 2026-05-05 03:29 | 46.56020 | -120.42850 | 36282 ft | 454 kts | 318° |
| 2026-05-05 03:29 | 46.57998 | -120.46488 | 36048 ft | 460 kts | 313° |
| 2026-05-05 03:29 | 46.59848 | -120.50301 | 35756 ft | 462 kts | 311° |
| 2026-05-05 03:30 | 46.61686 | -120.54147 | 35508 ft | 465 kts | 311° |
| 2026-05-05 03:30 | 46.63529 | -120.58013 | 35246 ft | 467 kts | 311° |
| 2026-05-05 03:30 | 46.65384 | -120.61908 | 35003 ft | 467 kts | 311° |
| 2026-05-05 03:30 | 46.67236 | -120.65799 | 34758 ft | 468 kts | 311° |
| 2026-05-05 03:31 | 46.69088 | -120.69697 | 34522 ft | 469 kts | 311° |
| 2026-05-05 03:31 | 46.70944 | -120.73604 | 34295 ft | 470 kts | 311° |
| 2026-05-05 03:31 | 46.72812 | -120.77541 | 34070 ft | 471 kts | 310° |
| 2026-05-05 03:31 | 46.74670 | -120.81464 | 33832 ft | 472 kts | 310° |
| 2026-05-05 03:32 | 46.76532 | -120.85401 | 33589 ft | 472 kts | 310° |
| 2026-05-05 03:32 | 46.78398 | -120.89352 | 33327 ft | 473 kts | 310° |
| 2026-05-05 03:32 | 46.80267 | -120.93315 | 33062 ft | 474 kts | 310° |
| 2026-05-05 03:32 | 46.82132 | -120.97271 | 32836 ft | 474 kts | 310° |
| 2026-05-05 03:33 | 46.84003 | -121.01248 | 32567 ft | 475 kts | 310° |
| 2026-05-05 03:33 | 46.85877 | -121.05240 | 32319 ft | 477 kts | 310° |
| 2026-05-05 03:33 | 46.87754 | -121.09244 | 32068 ft | 477 kts | 310° |
| 2026-05-05 03:33 | 46.89627 | -121.13246 | 31804 ft | 478 kts | 310° |
| 2026-05-05 03:34 | 46.91505 | -121.17261 | 31558 ft | 479 kts | 310° |
| 2026-05-05 03:34 | 46.93370 | -121.21258 | 30989 ft | 468 kts | 309° |
| 2026-05-05 03:34 | 46.95174 | -121.25139 | 30165 ft | 460 kts | 309° |
| 2026-05-05 03:34 | 46.96984 | -121.29023 | 29179 ft | 462 kts | 309° |
| 2026-05-05 03:35 | 46.98792 | -121.32907 | 28422 ft | 460 kts | 309° |
| 2026-05-05 03:35 | 47.00557 | -121.36711 | 27827 ft | 454 kts | 309° |
| 2026-05-05 03:35 | 47.02340 | -121.40559 | 27240 ft | 448 kts | 309° |
| 2026-05-05 03:35 | 47.04057 | -121.44271 | 26644 ft | 444 kts | 309° |
| 2026-05-05 03:36 | 47.05775 | -121.48001 | 26032 ft | 440 kts | 309° |
| 2026-05-05 03:36 | 47.07253 | -121.51944 | 25448 ft | 443 kts | 298° |
| 2026-05-05 03:36 | 47.08165 | -121.56341 | 24827 ft | 447 kts | 289° |
| 2026-05-05 03:36 | 47.08807 | -121.60735 | 24252 ft | 445 kts | 287° |
| 2026-05-05 03:37 | 47.09422 | -121.65157 | 23638 ft | 442 kts | 287° |
| 2026-05-05 03:37 | 47.10040 | -121.69571 | 22968 ft | 439 kts | 287° |
| 2026-05-05 03:37 | 47.10654 | -121.73941 | 22339 ft | 435 kts | 287° |
| 2026-05-05 03:37 | 47.11266 | -121.78278 | 21732 ft | 431 kts | 287° |
| 2026-05-05 03:38 | 47.11874 | -121.82557 | 21128 ft | 427 kts | 287° |
| 2026-05-05 03:38 | 47.12470 | -121.86808 | 20523 ft | 423 kts | 286° |
| 2026-05-05 03:38 | 47.13060 | -121.91018 | 19940 ft | 420 kts | 286° |
| 2026-05-05 03:38 | 47.13648 | -121.95214 | 19332 ft | 418 kts | 286° |
| 2026-05-05 03:39 | 47.14230 | -121.99379 | 18721 ft | 415 kts | 285° |
| 2026-05-05 03:39 | 47.14808 | -122.03527 | 18081 ft | 413 kts | 285° |
| 2026-05-05 03:39 | 47.15380 | -122.07641 | 17417 ft | 410 kts | 285° |
| 2026-05-05 03:39 | 47.15755 | -122.10350 | 17004 ft | 407 kts | 285° |
| 2026-05-05 03:40 | 47.16317 | -122.14405 | 16378 ft | 404 kts | 285° |
| 2026-05-05 03:40 | 47.16870 | -122.18421 | 15842 ft | 398 kts | 284° |
| 2026-05-05 03:40 | 47.17417 | -122.22397 | 15233 ft | 395 kts | 284° |
| 2026-05-05 03:40 | 47.17960 | -122.26344 | 14623 ft | 393 kts | 284° |
| 2026-05-05 03:41 | 47.18497 | -122.30264 | 14010 ft | 391 kts | 284° |
| 2026-05-05 03:41 | 47.19023 | -122.34117 | 13363 ft | 375 kts | 284° |
| 2026-05-05 03:41 | 47.19532 | -122.37867 | 12758 ft | 372 kts | 284° |
| 2026-05-05 03:41 | 47.20037 | -122.41579 | 12164 ft | 369 kts | 284° |
| 2026-05-05 03:42 | 47.20537 | -122.45262 | 11575 ft | 366 kts | 283° |
| 2026-05-05 03:42 | 47.21031 | -122.48916 | 10999 ft | 363 kts | 283° |
| 2026-05-05 03:42 | 47.21640 | -122.52454 | 10751 ft | 345 kts | 293° |
| 2026-05-05 03:42 | 47.22777 | -122.55317 | 10607 ft | 307 kts | 313° |
| 2026-05-05 03:43 | 47.24326 | -122.57233 | 10477 ft | 279 kts | 331° |
| 2026-05-05 03:43 | 47.26073 | -122.58278 | 10351 ft | 266 kts | 348° |
| 2026-05-05 03:43 | 47.27872 | -122.58520 | 10223 ft | 256 kts | 4° |
| 2026-05-05 03:43 | 47.29622 | -122.58009 | 10104 ft | 258 kts | 19° |
| 2026-05-05 03:44 | 47.31307 | -122.57083 | 9994 ft | 259 kts | 18° |
| 2026-05-05 03:44 | 47.33096 | -122.56456 | 9926 ft | 273 kts | 8° |
| 2026-05-05 03:44 | 47.35003 | -122.56091 | 9873 ft | 278 kts | 6° |
| 2026-05-05 03:44 | 47.36923 | -122.55777 | 9612 ft | 275 kts | 6° |
| 2026-05-05 03:45 | 47.38804 | -122.55476 | 9143 ft | 273 kts | 6° |
| 2026-05-05 03:45 | 47.40711 | -122.55173 | 8888 ft | 277 kts | 6° |
| 2026-05-05 03:45 | 47.42622 | -122.54868 | 8545 ft | 275 kts | 6° |
| 2026-05-05 03:45 | 47.44513 | -122.54567 | 8241 ft | 273 kts | 6° |
| 2026-05-05 03:46 | 47.46406 | -122.54458 | 8031 ft | 273 kts | 356° |
| 2026-05-05 03:46 | 47.48287 | -122.54843 | 7732 ft | 271 kts | 350° |
| 2026-05-05 03:46 | 47.50124 | -122.55355 | 7466 ft | 272 kts | 349° |
| 2026-05-05 03:46 | 47.52000 | -122.55887 | 7208 ft | 271 kts | 349° |
| 2026-05-05 03:47 | 47.53830 | -122.56403 | 6966 ft | 270 kts | 349° |
| 2026-05-05 03:47 | 47.55664 | -122.56915 | 6714 ft | 269 kts | 349° |
| 2026-05-05 03:47 | 47.57499 | -122.57426 | 6475 ft | 268 kts | 349° |
| 2026-05-05 03:47 | 47.59329 | -122.57935 | 6234 ft | 265 kts | 349° |
| 2026-05-05 03:48 | 47.61092 | -122.58424 | 6028 ft | 251 kts | 350° |
| 2026-05-05 03:48 | 47.62773 | -122.58636 | 5776 ft | 235 kts | 5° |
| 2026-05-05 03:48 | 47.64289 | -122.58005 | 5470 ft | 221 kts | 22° |
| 2026-05-05 03:48 | 47.65665 | -122.57051 | 5162 ft | 216 kts | 25° |
| 2026-05-05 03:49 | 47.66968 | -122.55978 | 4745 ft | 214 kts | 34° |
| 2026-05-05 03:49 | 47.67882 | -122.54282 | 4453 ft | 214 kts | 66° |
| 2026-05-05 03:49 | 47.68052 | -122.52094 | 3992 ft | 216 kts | 93° |
| 2026-05-05 03:49 | 47.67836 | -122.49907 | 3677 ft | 212 kts | 98° |
| 2026-05-05 03:50 | 47.67570 | -122.47795 | 3420 ft | 204 kts | 102° |
| 2026-05-05 03:50 | 47.67016 | -122.45948 | 3221 ft | 191 kts | 126° |
| 2026-05-05 03:50 | 47.66155 | -122.44529 | 3003 ft | 179 kts | 135° |
| 2026-05-05 03:50 | 47.65295 | -122.43286 | 2742 ft | 167 kts | 135° |
| 2026-05-05 03:51 | 47.64470 | -122.42099 | 2530 ft | 164 kts | 135° |
| 2026-05-05 03:51 | 47.63665 | -122.40931 | 2325 ft | 161 kts | 135° |
| 2026-05-05 03:51 | 47.62871 | -122.39770 | 2107 ft | 160 kts | 136° |
| 2026-05-05 03:51 | 47.62104 | -122.38642 | 1897 ft | 150 kts | 137° |
| 2026-05-05 03:52 | 47.61389 | -122.37587 | 1685 ft | 141 kts | 138° |
| 2026-05-05 03:52 | 47.60644 | -122.36720 | 1488 ft | 132 kts | 153° |
| 2026-05-05 03:52 | 47.59833 | -122.36031 | 1343 ft | 137 kts | 152° |
| 2026-05-05 03:52 | 47.59003 | -122.35360 | 1109 ft | 136 kts | 155° |
| 2026-05-05 03:53 | 47.58175 | -122.34682 | 950 ft | 138 kts | 161° |
| 2026-05-05 03:53 | 47.57346 | -122.33976 | 797 ft | 138 kts | 153° |
| 2026-05-05 03:53 | 47.56506 | -122.33213 | 599 ft | 141 kts | 151° |
| 2026-05-05 03:53 | 47.55666 | -122.32482 | 366 ft | 144 kts | 155° |
| 2026-05-05 03:54 | 47.54806 | -122.31747 | 218 ft | 142 kts | 152° |
| 2026-05-05 03:54 | 47.53944 | -122.31035 | 60 ft | 142 kts | 153° |
| 2026-05-05 03:54 | 47.53139 | -122.30362 | 31 ft | 126 kts | 150° |
| 2026-05-05 03:54 | 47.52594 | -122.29901 | 29 ft | 48 kts | 150° |
| 2026-05-05 03:55 | 47.52510 | -122.29830 | 30 ft | 2 kts | 150° |
| 2026-05-05 03:55 | 47.52440 | -122.29771 | 30 ft | 20 kts | 150° |
| 2026-05-05 03:55 | 47.52357 | -122.29701 | 32 ft | 10 kts | 149° |
| 2026-05-05 03:55 | 47.52308 | -122.29616 | 32 ft | 12 kts | 97° |
| 2026-05-05 03:56 | 47.52355 | -122.29556 | 32 ft | 10 kts | 348° |
| 2026-05-05 03:56 | 47.52424 | -122.29603 | 32 ft | 12 kts | 332° |
| 2026-05-05 03:56 | 47.52509 | -122.29674 | 32 ft | 16 kts | 330° |
| 2026-05-05 03:56 | 47.52611 | -122.29760 | 32 ft | 18 kts | 330° |
| 2026-05-05 03:57 | 47.52732 | -122.29846 | 31 ft | 20 kts | 354° |
| 2026-05-05 03:57 | 47.52868 | -122.29847 | 33 ft | 20 kts | 342° |
| 2026-05-05 03:57 | 47.52996 | -122.29945 | 33 ft | 22 kts | 331° |
| 2026-05-05 03:57 | 47.53130 | -122.30057 | 34 ft | 18 kts | 330° |
| 2026-05-05 03:58 | 47.53237 | -122.30150 | 34 ft | 9 kts | 330° |
| 2026-05-05 03:58 | 47.53289 | -122.30192 | 34 ft | 10 kts | 330° |
| 2026-05-05 03:58 | 47.53359 | -122.30247 | 34 ft | 12 kts | 346° |
| 2026-05-05 03:58 | 47.53410 | -122.30182 | 34 ft | 3 kts | 63° |
| 2026-05-05 03:59 | 47.53411 | -122.30182 | 34 ft | 0 kts | 63° |
| 2026-05-05 04:00 | 47.53410 | -122.30182 | 34 ft | 0 kts | 63° |